<?xml version='1.0' encoding='UTF-8'?><gpx version="1.1" creator="JPX - https://github.com/jenetics/jpx" xmlns="http://www.topografix.com/GPX/1/1"><trk><trkseg><trkpt lat="49.3083496" lon="5.7657394"><ele>302.0</ele><time>2026-03-22T08:10:23.142Z</time></trkpt><trkpt lat="49.3083478" lon="5.7656073"><ele>302.0</ele><time>2026-03-22T08:10:27.143Z</time></trkpt><trkpt lat="49.3083205" lon="5.7655173"><ele>302.0</ele><time>2026-03-22T08:10:29.142Z</time></trkpt><trkpt lat="49.3083005" lon="5.7653955"><ele>302.0</ele><time>2026-03-22T08:10:32.143Z</time></trkpt><trkpt lat="49.3083155" lon="5.7652793"><ele>302.0</ele><time>2026-03-22T08:10:35.143Z</time></trkpt><trkpt lat="49.308391" lon="5.7652188"><ele>302.0</ele><time>2026-03-22T08:10:38.143Z</time></trkpt><trkpt lat="49.3084564" lon="5.7651899"><ele>301.83333333333337</ele><time>2026-03-22T08:10:40.144Z</time></trkpt><trkpt lat="49.3085309" lon="5.7651597"><ele>301.6666666666667</ele><time>2026-03-22T08:10:42.143Z</time></trkpt><trkpt lat="49.308605" lon="5.7651303"><ele>301.5</ele><time>2026-03-22T08:10:44.144Z</time></trkpt><trkpt lat="49.3086924" lon="5.7650982"><ele>301.3333333333333</ele><time>2026-03-22T08:10:46.144Z</time></trkpt><trkpt lat="49.30878" lon="5.765076"><ele>301.16666666666663</ele><time>2026-03-22T08:10:48.144Z</time></trkpt><trkpt lat="49.3088411" lon="5.7650518"><ele>301.0</ele><time>2026-03-22T08:10:50.143Z</time></trkpt><trkpt lat="49.3089268" lon="5.7649884"><ele>301.40000000000003</ele><time>2026-03-22T08:10:54.143Z</time></trkpt><trkpt lat="49.3090026" lon="5.764931"><ele>301.8</ele><time>2026-03-22T08:10:56.143Z</time></trkpt><trkpt lat="49.3090802" lon="5.7648873"><ele>302.20000000000005</ele><time>2026-03-22T08:10:58.145Z</time></trkpt><trkpt lat="49.3091722" lon="5.7648379"><ele>302.6</ele><time>2026-03-22T08:11:00.144Z</time></trkpt><trkpt lat="49.3092803" lon="5.7647812"><ele>303.0</ele><time>2026-03-22T08:11:02.143Z</time></trkpt><trkpt lat="49.3093995" lon="5.7647175"><ele>303.0</ele><time>2026-03-22T08:11:04.143Z</time></trkpt><trkpt lat="49.3094617" lon="5.7646836"><ele>303.0</ele><time>2026-03-22T08:11:05.144Z</time></trkpt><trkpt lat="49.3095263" lon="5.7646471"><ele>303.0</ele><time>2026-03-22T08:11:06.144Z</time></trkpt><trkpt lat="49.3095953" lon="5.7646124"><ele>303.0</ele><time>2026-03-22T08:11:07.144Z</time></trkpt><trkpt lat="49.3096644" lon="5.7645767"><ele>303.0</ele><time>2026-03-22T08:11:08.144Z</time></trkpt><trkpt lat="49.3097333" lon="5.7645394"><ele>303.0</ele><time>2026-03-22T08:11:09.144Z</time></trkpt><trkpt lat="49.3098056" lon="5.7645043"><ele>303.0</ele><time>2026-03-22T08:11:10.143Z</time></trkpt><trkpt lat="49.3098776" lon="5.7644689"><ele>303.14285714285717</ele><time>2026-03-22T08:11:11.144Z</time></trkpt><trkpt lat="49.3099498" lon="5.764433"><ele>303.2857142857143</ele><time>2026-03-22T08:11:12.144Z</time></trkpt><trkpt lat="49.3100258" lon="5.7644003"><ele>303.42857142857144</ele><time>2026-03-22T08:11:13.143Z</time></trkpt><trkpt lat="49.3101002" lon="5.7643685"><ele>303.57142857142856</ele><time>2026-03-22T08:11:14.144Z</time></trkpt><trkpt lat="49.310172" lon="5.764335"><ele>303.7142857142857</ele><time>2026-03-22T08:11:15.143Z</time></trkpt><trkpt lat="49.3102377" lon="5.7643023"><ele>303.85714285714283</ele><time>2026-03-22T08:11:16.143Z</time></trkpt><trkpt lat="49.3103012" lon="5.764276"><ele>304.0</ele><time>2026-03-22T08:11:17.143Z</time></trkpt><trkpt lat="49.3103646" lon="5.7642487"><ele>304.0</ele><time>2026-03-22T08:11:18.143Z</time></trkpt><trkpt lat="49.3104264" lon="5.7642212"><ele>304.0</ele><time>2026-03-22T08:11:19.144Z</time></trkpt><trkpt lat="49.3105117" lon="5.7641874"><ele>304.0</ele><time>2026-03-22T08:11:21.143Z</time></trkpt><trkpt lat="49.3105962" lon="5.7641604"><ele>304.0</ele><time>2026-03-22T08:11:24.144Z</time></trkpt><trkpt lat="49.310669" lon="5.764137"><ele>304.0</ele><time>2026-03-22T08:11:27.143Z</time></trkpt><trkpt lat="49.3107291" lon="5.7640853"><ele>304.0</ele><time>2026-03-22T08:11:29.145Z</time></trkpt><trkpt lat="49.3107302" lon="5.7639508"><ele>304.0</ele><time>2026-03-22T08:11:31.144Z</time></trkpt><trkpt lat="49.310675" lon="5.7638174"><ele>304.0</ele><time>2026-03-22T08:11:33.145Z</time></trkpt><trkpt lat="49.3106392" lon="5.7637349"><ele>304.0</ele><time>2026-03-22T08:11:34.143Z</time></trkpt><trkpt lat="49.3105996" lon="5.7636426"><ele>304.0</ele><time>2026-03-22T08:11:35.143Z</time></trkpt><trkpt lat="49.3105588" lon="5.7635461"><ele>304.0</ele><time>2026-03-22T08:11:36.144Z</time></trkpt><trkpt lat="49.3105145" lon="5.7634437"><ele>304.0</ele><time>2026-03-22T08:11:37.144Z</time></trkpt><trkpt lat="49.3104712" lon="5.7633365"><ele>303.8333333333333</ele><time>2026-03-22T08:11:38.143Z</time></trkpt><trkpt lat="49.3104244" lon="5.7632301"><ele>303.66666666666663</ele><time>2026-03-22T08:11:39.143Z</time></trkpt><trkpt lat="49.3103744" lon="5.7631226"><ele>303.5</ele><time>2026-03-22T08:11:40.143Z</time></trkpt><trkpt lat="49.3103227" lon="5.7630135"><ele>303.3333333333333</ele><time>2026-03-22T08:11:41.143Z</time></trkpt><trkpt lat="49.3102744" lon="5.7629118"><ele>303.1666666666667</ele><time>2026-03-22T08:11:42.143Z</time></trkpt><trkpt lat="49.3102317" lon="5.7628107"><ele>303.0</ele><time>2026-03-22T08:11:43.144Z</time></trkpt><trkpt lat="49.3101958" lon="5.7627062"><ele>302.8333333333333</ele><time>2026-03-22T08:11:44.143Z</time></trkpt><trkpt lat="49.310148" lon="5.7625961"><ele>302.6666666666667</ele><time>2026-03-22T08:11:45.144Z</time></trkpt><trkpt lat="49.3101015" lon="5.7624921"><ele>302.5</ele><time>2026-03-22T08:11:46.143Z</time></trkpt><trkpt lat="49.3100641" lon="5.762391"><ele>302.33333333333337</ele><time>2026-03-22T08:11:47.144Z</time></trkpt><trkpt lat="49.3100243" lon="5.7622774"><ele>302.1666666666667</ele><time>2026-03-22T08:11:48.144Z</time></trkpt><trkpt lat="49.3099839" lon="5.7621584"><ele>302.0</ele><time>2026-03-22T08:11:49.144Z</time></trkpt><trkpt lat="49.3099411" lon="5.7620391"><ele>302.0</ele><time>2026-03-22T08:11:50.144Z</time></trkpt><trkpt lat="49.3099048" lon="5.7619164"><ele>302.0</ele><time>2026-03-22T08:11:51.143Z</time></trkpt><trkpt lat="49.309869" lon="5.7617959"><ele>302.0</ele><time>2026-03-22T08:11:52.144Z</time></trkpt><trkpt lat="49.3098408" lon="5.7616682"><ele>302.0</ele><time>2026-03-22T08:11:53.143Z</time></trkpt><trkpt lat="49.3098177" lon="5.7615417"><ele>302.0</ele><time>2026-03-22T08:11:54.144Z</time></trkpt><trkpt lat="49.3097961" lon="5.7614146"><ele>302.0</ele><time>2026-03-22T08:11:55.144Z</time></trkpt><trkpt lat="49.309773" lon="5.7612786"><ele>301.6666666666667</ele><time>2026-03-22T08:11:56.144Z</time></trkpt><trkpt lat="49.3097495" lon="5.7611412"><ele>301.33333333333337</ele><time>2026-03-22T08:11:57.144Z</time></trkpt><trkpt lat="49.309723" lon="5.7610063"><ele>301.0</ele><time>2026-03-22T08:11:58.143Z</time></trkpt><trkpt lat="49.3096957" lon="5.7608702"><ele>300.6666666666667</ele><time>2026-03-22T08:11:59.144Z</time></trkpt><trkpt lat="49.3096699" lon="5.7607501"><ele>300.3333333333333</ele><time>2026-03-22T08:12:00.144Z</time></trkpt><trkpt lat="49.3096412" lon="5.7606437"><ele>300.0</ele><time>2026-03-22T08:12:01.144Z</time></trkpt><trkpt lat="49.3096084" lon="5.7605577"><ele>300.6666666666667</ele><time>2026-03-22T08:12:02.145Z</time></trkpt><trkpt lat="49.3095848" lon="5.7604242"><ele>301.3333333333333</ele><time>2026-03-22T08:12:04.144Z</time></trkpt><trkpt lat="49.3096258" lon="5.7603271"><ele>302.0</ele><time>2026-03-22T08:12:06.144Z</time></trkpt><trkpt lat="49.3096934" lon="5.7602559"><ele>302.66666666666663</ele><time>2026-03-22T08:12:08.144Z</time></trkpt><trkpt lat="49.3097111" lon="5.7601329"><ele>303.3333333333333</ele><time>2026-03-22T08:12:10.143Z</time></trkpt><trkpt lat="49.309652" lon="5.7600036"><ele>304.0</ele><time>2026-03-22T08:12:12.143Z</time></trkpt><trkpt lat="49.3095898" lon="5.7598854"><ele>303.8333333333333</ele><time>2026-03-22T08:12:14.144Z</time></trkpt><trkpt lat="49.3095238" lon="5.7597354"><ele>303.66666666666663</ele><time>2026-03-22T08:12:16.144Z</time></trkpt><trkpt lat="49.3094839" lon="5.7596418"><ele>303.5</ele><time>2026-03-22T08:12:17.144Z</time></trkpt><trkpt lat="49.3094502" lon="5.7595459"><ele>303.3333333333333</ele><time>2026-03-22T08:12:18.144Z</time></trkpt><trkpt lat="49.3094158" lon="5.7594608"><ele>303.1666666666667</ele><time>2026-03-22T08:12:19.144Z</time></trkpt><trkpt lat="49.3093735" lon="5.7593436"><ele>303.0</ele><time>2026-03-22T08:12:21.143Z</time></trkpt><trkpt lat="49.309335" lon="5.759258"><ele>303.0</ele><time>2026-03-22T08:12:23.143Z</time></trkpt><trkpt lat="49.3092653" lon="5.7591432"><ele>303.0</ele><time>2026-03-22T08:12:25.144Z</time></trkpt><trkpt lat="49.3091866" lon="5.7590028"><ele>303.0</ele><time>2026-03-22T08:12:27.143Z</time></trkpt><trkpt lat="49.309149" lon="5.7589215"><ele>303.0</ele><time>2026-03-22T08:12:28.144Z</time></trkpt><trkpt lat="49.3091035" lon="5.758841"><ele>303.0</ele><time>2026-03-22T08:12:29.144Z</time></trkpt><trkpt lat="49.3090579" lon="5.7587574"><ele>303.0</ele><time>2026-03-22T08:12:30.144Z</time></trkpt><trkpt lat="49.3090082" lon="5.7586728"><ele>303.0</ele><time>2026-03-22T08:12:31.143Z</time></trkpt><trkpt lat="49.308958" lon="5.7585864"><ele>303.0</ele><time>2026-03-22T08:12:32.144Z</time></trkpt><trkpt lat="49.3089082" lon="5.7584955"><ele>303.0</ele><time>2026-03-22T08:12:33.144Z</time></trkpt><trkpt lat="49.3088559" lon="5.7584076"><ele>303.0</ele><time>2026-03-22T08:12:34.144Z</time></trkpt><trkpt lat="49.3088026" lon="5.7583133"><ele>303.0</ele><time>2026-03-22T08:12:35.143Z</time></trkpt><trkpt lat="49.3087508" lon="5.7582161"><ele>303.0</ele><time>2026-03-22T08:12:36.143Z</time></trkpt><trkpt lat="49.3087008" lon="5.7581175"><ele>303.3333333333333</ele><time>2026-03-22T08:12:37.143Z</time></trkpt><trkpt lat="49.30865" lon="5.7580134"><ele>303.6666666666667</ele><time>2026-03-22T08:12:38.144Z</time></trkpt><trkpt lat="49.3085996" lon="5.7579056"><ele>304.0</ele><time>2026-03-22T08:12:39.144Z</time></trkpt><trkpt lat="49.3085541" lon="5.7578005"><ele>304.33333333333337</ele><time>2026-03-22T08:12:40.143Z</time></trkpt><trkpt lat="49.3085089" lon="5.7577049"><ele>304.6666666666667</ele><time>2026-03-22T08:12:41.144Z</time></trkpt><trkpt lat="49.3084672" lon="5.7576101"><ele>305.0</ele><time>2026-03-22T08:12:42.144Z</time></trkpt><trkpt lat="49.3084269" lon="5.7575209"><ele>305.0</ele><time>2026-03-22T08:12:43.144Z</time></trkpt><trkpt lat="49.3083825" lon="5.7573595"><ele>305.0</ele><time>2026-03-22T08:12:45.144Z</time></trkpt><trkpt lat="49.3084107" lon="5.7572051"><ele>305.0</ele><time>2026-03-22T08:12:47.144Z</time></trkpt><trkpt lat="49.308492" lon="5.7571026"><ele>305.0</ele><time>2026-03-22T08:12:49.143Z</time></trkpt><trkpt lat="49.3085807" lon="5.7570875"><ele>305.0</ele><time>2026-03-22T08:12:51.143Z</time></trkpt><trkpt lat="49.3086797" lon="5.7571588"><ele>305.0</ele><time>2026-03-22T08:12:53.143Z</time></trkpt><trkpt lat="49.3087604" lon="5.7572928"><ele>305.0</ele><time>2026-03-22T08:12:55.145Z</time></trkpt><trkpt lat="49.308805" lon="5.7573668"><ele>305.0</ele><time>2026-03-22T08:12:56.144Z</time></trkpt><trkpt lat="49.3088513" lon="5.7574467"><ele>305.0</ele><time>2026-03-22T08:12:57.144Z</time></trkpt><trkpt lat="49.3088969" lon="5.7575268"><ele>305.0</ele><time>2026-03-22T08:12:58.144Z</time></trkpt><trkpt lat="49.3089403" lon="5.7576022"><ele>305.0</ele><time>2026-03-22T08:12:59.143Z</time></trkpt><trkpt lat="49.3089867" lon="5.7576736"><ele>304.2857142857143</ele><time>2026-03-22T08:13:00.144Z</time></trkpt><trkpt lat="49.3090439" lon="5.7577227"><ele>303.57142857142856</ele><time>2026-03-22T08:13:01.143Z</time></trkpt><trkpt lat="49.3091085" lon="5.7577332"><ele>302.85714285714283</ele><time>2026-03-22T08:13:02.144Z</time></trkpt><trkpt lat="49.3091698" lon="5.7577074"><ele>302.1428571428571</ele><time>2026-03-22T08:13:03.144Z</time></trkpt><trkpt lat="49.3092322" lon="5.7576653"><ele>301.42857142857144</ele><time>2026-03-22T08:13:04.144Z</time></trkpt><trkpt lat="49.3092952" lon="5.757613"><ele>300.71428571428567</ele><time>2026-03-22T08:13:05.144Z</time></trkpt><trkpt lat="49.3093592" lon="5.7575595"><ele>300.0</ele><time>2026-03-22T08:13:06.145Z</time></trkpt><trkpt lat="49.3094184" lon="5.7575117"><ele>300.0</ele><time>2026-03-22T08:13:07.144Z</time></trkpt><trkpt lat="49.3094745" lon="5.7574653"><ele>300.0</ele><time>2026-03-22T08:13:08.143Z</time></trkpt><trkpt lat="49.3095772" lon="5.7573703"><ele>300.0</ele><time>2026-03-22T08:13:10.144Z</time></trkpt><trkpt lat="49.3096505" lon="5.757272"><ele>300.0</ele><time>2026-03-22T08:13:12.143Z</time></trkpt><trkpt lat="49.3096757" lon="5.7571223"><ele>300.0</ele><time>2026-03-22T08:13:14.143Z</time></trkpt><trkpt lat="49.3096394" lon="5.7569695"><ele>299.1666666666667</ele><time>2026-03-22T08:13:16.144Z</time></trkpt><trkpt lat="49.3095738" lon="5.7568192"><ele>298.3333333333333</ele><time>2026-03-22T08:13:18.144Z</time></trkpt><trkpt lat="49.309543" lon="5.7567223"><ele>297.5</ele><time>2026-03-22T08:13:19.144Z</time></trkpt><trkpt lat="49.3095138" lon="5.7566111"><ele>296.66666666666663</ele><time>2026-03-22T08:13:20.144Z</time></trkpt><trkpt lat="49.3094919" lon="5.7564854"><ele>295.8333333333333</ele><time>2026-03-22T08:13:21.144Z</time></trkpt><trkpt lat="49.3094723" lon="5.7563537"><ele>295.0</ele><time>2026-03-22T08:13:22.144Z</time></trkpt><trkpt lat="49.3094431" lon="5.7562204"><ele>295.0</ele><time>2026-03-22T08:13:23.144Z</time></trkpt><trkpt lat="49.3094055" lon="5.7560929"><ele>295.0</ele><time>2026-03-22T08:13:24.144Z</time></trkpt><trkpt lat="49.3093565" lon="5.7559703"><ele>295.0</ele><time>2026-03-22T08:13:25.143Z</time></trkpt><trkpt lat="49.3093012" lon="5.7558438"><ele>295.0</ele><time>2026-03-22T08:13:26.144Z</time></trkpt><trkpt lat="49.3092404" lon="5.7557163"><ele>295.0</ele><time>2026-03-22T08:13:27.144Z</time></trkpt><trkpt lat="49.3091804" lon="5.7555944"><ele>293.4</ele><time>2026-03-22T08:13:28.143Z</time></trkpt><trkpt lat="49.3091217" lon="5.7554782"><ele>291.8</ele><time>2026-03-22T08:13:29.144Z</time></trkpt><trkpt lat="49.3090683" lon="5.7553609"><ele>290.2</ele><time>2026-03-22T08:13:30.144Z</time></trkpt><trkpt lat="49.3090184" lon="5.7552424"><ele>288.6</ele><time>2026-03-22T08:13:31.144Z</time></trkpt><trkpt lat="49.3089667" lon="5.7551236"><ele>287.0</ele><time>2026-03-22T08:13:32.144Z</time></trkpt><trkpt lat="49.3089184" lon="5.7550088"><ele>287.5</ele><time>2026-03-22T08:13:33.143Z</time></trkpt><trkpt lat="49.3088776" lon="5.7549"><ele>288.0</ele><time>2026-03-22T08:13:34.144Z</time></trkpt><trkpt lat="49.3088363" lon="5.754792"><ele>288.5</ele><time>2026-03-22T08:13:35.144Z</time></trkpt><trkpt lat="49.3087968" lon="5.7546833"><ele>289.0</ele><time>2026-03-22T08:13:36.143Z</time></trkpt><trkpt lat="49.3087603" lon="5.7545758"><ele>289.5</ele><time>2026-03-22T08:13:37.144Z</time></trkpt><trkpt lat="49.3087296" lon="5.754461"><ele>290.0</ele><time>2026-03-22T08:13:38.143Z</time></trkpt><trkpt lat="49.3087052" lon="5.7543374"><ele>290.0</ele><time>2026-03-22T08:13:39.144Z</time></trkpt><trkpt lat="49.3086871" lon="5.754208"><ele>290.0</ele><time>2026-03-22T08:13:40.143Z</time></trkpt><trkpt lat="49.3086771" lon="5.7540738"><ele>290.0</ele><time>2026-03-22T08:13:41.143Z</time></trkpt><trkpt lat="49.3086705" lon="5.7539363"><ele>290.0</ele><time>2026-03-22T08:13:42.144Z</time></trkpt><trkpt lat="49.30867" lon="5.753795"><ele>290.0</ele><time>2026-03-22T08:13:43.145Z</time></trkpt><trkpt lat="49.3086698" lon="5.7536516"><ele>289.6</ele><time>2026-03-22T08:13:44.144Z</time></trkpt><trkpt lat="49.3086688" lon="5.7535079"><ele>289.2</ele><time>2026-03-22T08:13:45.144Z</time></trkpt><trkpt lat="49.3086652" lon="5.7533663"><ele>288.8</ele><time>2026-03-22T08:13:46.144Z</time></trkpt><trkpt lat="49.3086615" lon="5.7532275"><ele>288.4</ele><time>2026-03-22T08:13:47.143Z</time></trkpt><trkpt lat="49.3086608" lon="5.7530879"><ele>288.0</ele><time>2026-03-22T08:13:48.144Z</time></trkpt><trkpt lat="49.3086605" lon="5.7529561"><ele>288.0</ele><time>2026-03-22T08:13:49.144Z</time></trkpt><trkpt lat="49.308668" lon="5.7528331"><ele>288.0</ele><time>2026-03-22T08:13:50.144Z</time></trkpt><trkpt lat="49.3086845" lon="5.752723"><ele>288.0</ele><time>2026-03-22T08:13:51.143Z</time></trkpt><trkpt lat="49.3087144" lon="5.7526291"><ele>288.0</ele><time>2026-03-22T08:13:52.144Z</time></trkpt><trkpt lat="49.3088159" lon="5.7525558"><ele>288.0</ele><time>2026-03-22T08:13:54.144Z</time></trkpt><trkpt lat="49.3088813" lon="5.7525372"><ele>288.0</ele><time>2026-03-22T08:13:55.143Z</time></trkpt><trkpt lat="49.3089465" lon="5.7525047"><ele>286.1666666666667</ele><time>2026-03-22T08:13:56.143Z</time></trkpt><trkpt lat="49.3090077" lon="5.7524549"><ele>284.3333333333333</ele><time>2026-03-22T08:13:57.143Z</time></trkpt><trkpt lat="49.3090659" lon="5.7523869"><ele>282.5</ele><time>2026-03-22T08:13:58.144Z</time></trkpt><trkpt lat="49.3091216" lon="5.752312"><ele>280.66666666666663</ele><time>2026-03-22T08:13:59.144Z</time></trkpt><trkpt lat="49.3091763" lon="5.7522273"><ele>278.8333333333333</ele><time>2026-03-22T08:14:00.144Z</time></trkpt><trkpt lat="49.309232" lon="5.752129"><ele>277.0</ele><time>2026-03-22T08:14:01.143Z</time></trkpt><trkpt lat="49.3092852" lon="5.7520236"><ele>277.0</ele><time>2026-03-22T08:14:02.144Z</time></trkpt><trkpt lat="49.3093351" lon="5.7519091"><ele>277.0</ele><time>2026-03-22T08:14:03.144Z</time></trkpt><trkpt lat="49.30938" lon="5.751784"><ele>277.0</ele><time>2026-03-22T08:14:04.143Z</time></trkpt><trkpt lat="49.309421" lon="5.7516521"><ele>277.0</ele><time>2026-03-22T08:14:05.143Z</time></trkpt><trkpt lat="49.3094606" lon="5.7515248"><ele>277.0</ele><time>2026-03-22T08:14:06.143Z</time></trkpt><trkpt lat="49.3094828" lon="5.7513926"><ele>277.5</ele><time>2026-03-22T08:14:07.144Z</time></trkpt><trkpt lat="49.3094874" lon="5.7512648"><ele>278.0</ele><time>2026-03-22T08:14:08.144Z</time></trkpt><trkpt lat="49.3094806" lon="5.7511401"><ele>278.5</ele><time>2026-03-22T08:14:09.144Z</time></trkpt><trkpt lat="49.309474" lon="5.7510179"><ele>279.0</ele><time>2026-03-22T08:14:10.143Z</time></trkpt><trkpt lat="49.3094706" lon="5.7509001"><ele>279.5</ele><time>2026-03-22T08:14:11.143Z</time></trkpt><trkpt lat="49.3094622" lon="5.7507869"><ele>280.0</ele><time>2026-03-22T08:14:12.145Z</time></trkpt><trkpt lat="49.3094514" lon="5.7506799"><ele>280.0</ele><time>2026-03-22T08:14:13.144Z</time></trkpt><trkpt lat="49.3094453" lon="5.7505795"><ele>280.0</ele><time>2026-03-22T08:14:14.144Z</time></trkpt><trkpt lat="49.3094695" lon="5.7504157"><ele>280.0</ele><time>2026-03-22T08:14:16.144Z</time></trkpt><trkpt lat="49.309516" lon="5.7502999"><ele>280.0</ele><time>2026-03-22T08:14:18.144Z</time></trkpt><trkpt lat="49.3095692" lon="5.7501935"><ele>280.0</ele><time>2026-03-22T08:14:20.143Z</time></trkpt><trkpt lat="49.3096246" lon="5.750094"><ele>280.0</ele><time>2026-03-22T08:14:22.144Z</time></trkpt><trkpt lat="49.309676" lon="5.7500062"><ele>280.0</ele><time>2026-03-22T08:14:24.143Z</time></trkpt><trkpt lat="49.3096643" lon="5.7499039"><ele>280.0</ele><time>2026-03-22T08:14:37.144Z</time></trkpt><trkpt lat="49.3096011" lon="5.7498611"><ele>280.0</ele><time>2026-03-22T08:14:47.144Z</time></trkpt><trkpt lat="49.3095625" lon="5.7499447"><ele>280.0</ele><time>2026-03-22T08:14:49.145Z</time></trkpt><trkpt lat="49.3094928" lon="5.7500515"><ele>280.0</ele><time>2026-03-22T08:14:51.145Z</time></trkpt><trkpt lat="49.3094347" lon="5.7501821"><ele>280.0</ele><time>2026-03-22T08:14:53.144Z</time></trkpt><trkpt lat="49.3093414" lon="5.7502907"><ele>280.0</ele><time>2026-03-22T08:14:55.143Z</time></trkpt><trkpt lat="49.3092776" lon="5.750318"><ele>280.0</ele><time>2026-03-22T08:14:56.143Z</time></trkpt><trkpt lat="49.3092082" lon="5.7503184"><ele>280.0</ele><time>2026-03-22T08:14:57.144Z</time></trkpt><trkpt lat="49.3091367" lon="5.7503047"><ele>280.0</ele><time>2026-03-22T08:14:58.144Z</time></trkpt><trkpt lat="49.3090616" lon="5.7502969"><ele>280.0</ele><time>2026-03-22T08:14:59.144Z</time></trkpt><trkpt lat="49.308983" lon="5.7502901"><ele>280.0</ele><time>2026-03-22T08:15:00.144Z</time></trkpt><trkpt lat="49.3089104" lon="5.7502786"><ele>280.0</ele><time>2026-03-22T08:15:01.144Z</time></trkpt><trkpt lat="49.3088496" lon="5.7502463"><ele>281.4</ele><time>2026-03-22T08:15:02.144Z</time></trkpt><trkpt lat="49.3087793" lon="5.7500865"><ele>282.8</ele><time>2026-03-22T08:15:04.143Z</time></trkpt><trkpt lat="49.3087589" lon="5.7499832"><ele>284.2</ele><time>2026-03-22T08:15:05.144Z</time></trkpt><trkpt lat="49.3087275" lon="5.7498666"><ele>285.6</ele><time>2026-03-22T08:15:06.143Z</time></trkpt><trkpt lat="49.3086932" lon="5.7497421"><ele>287.0</ele><time>2026-03-22T08:15:07.144Z</time></trkpt><trkpt lat="49.3086547" lon="5.7496146"><ele>287.0</ele><time>2026-03-22T08:15:08.145Z</time></trkpt><trkpt lat="49.3086139" lon="5.7494866"><ele>287.0</ele><time>2026-03-22T08:15:09.143Z</time></trkpt><trkpt lat="49.3085779" lon="5.7493622"><ele>287.0</ele><time>2026-03-22T08:15:10.143Z</time></trkpt><trkpt lat="49.3085363" lon="5.7492381"><ele>287.0</ele><time>2026-03-22T08:15:11.143Z</time></trkpt><trkpt lat="49.3084956" lon="5.749113"><ele>287.0</ele><time>2026-03-22T08:15:12.144Z</time></trkpt><trkpt lat="49.3084524" lon="5.7489891"><ele>286.6</ele><time>2026-03-22T08:15:13.143Z</time></trkpt><trkpt lat="49.3084104" lon="5.7488616"><ele>286.2</ele><time>2026-03-22T08:15:14.144Z</time></trkpt><trkpt lat="49.3083658" lon="5.7487351"><ele>285.8</ele><time>2026-03-22T08:15:15.143Z</time></trkpt><trkpt lat="49.3083215" lon="5.7486071"><ele>285.4</ele><time>2026-03-22T08:15:16.144Z</time></trkpt><trkpt lat="49.3082781" lon="5.7484799"><ele>285.0</ele><time>2026-03-22T08:15:17.143Z</time></trkpt><trkpt lat="49.3082335" lon="5.748351"><ele>284.6666666666667</ele><time>2026-03-22T08:15:18.144Z</time></trkpt><trkpt lat="49.3081877" lon="5.7482242"><ele>284.3333333333333</ele><time>2026-03-22T08:15:19.145Z</time></trkpt><trkpt lat="49.3081386" lon="5.7481019"><ele>284.0</ele><time>2026-03-22T08:15:20.144Z</time></trkpt><trkpt lat="49.3080873" lon="5.7479999"><ele>283.66666666666663</ele><time>2026-03-22T08:15:21.144Z</time></trkpt><trkpt lat="49.3080417" lon="5.7479023"><ele>283.3333333333333</ele><time>2026-03-22T08:15:22.144Z</time></trkpt><trkpt lat="49.3080037" lon="5.7478055"><ele>283.0</ele><time>2026-03-22T08:15:23.144Z</time></trkpt><trkpt lat="49.3079789" lon="5.7477061"><ele>283.0</ele><time>2026-03-22T08:15:24.144Z</time></trkpt><trkpt lat="49.3079552" lon="5.7476086"><ele>283.0</ele><time>2026-03-22T08:15:25.144Z</time></trkpt><trkpt lat="49.3079241" lon="5.7475123"><ele>283.0</ele><time>2026-03-22T08:15:26.144Z</time></trkpt><trkpt lat="49.3078899" lon="5.7474216"><ele>283.0</ele><time>2026-03-22T08:15:27.145Z</time></trkpt><trkpt lat="49.3078509" lon="5.7473351"><ele>283.0</ele><time>2026-03-22T08:15:28.145Z</time></trkpt><trkpt lat="49.3078148" lon="5.7472446"><ele>283.0</ele><time>2026-03-22T08:15:29.144Z</time></trkpt><trkpt lat="49.3077793" lon="5.7471524"><ele>283.0</ele><time>2026-03-22T08:15:30.143Z</time></trkpt><trkpt lat="49.3077473" lon="5.747057"><ele>283.0</ele><time>2026-03-22T08:15:31.143Z</time></trkpt><trkpt lat="49.3077225" lon="5.74696"><ele>283.0</ele><time>2026-03-22T08:15:32.144Z</time></trkpt><trkpt lat="49.3076916" lon="5.746864"><ele>283.0</ele><time>2026-03-22T08:15:33.144Z</time></trkpt><trkpt lat="49.3076527" lon="5.746769"><ele>283.0</ele><time>2026-03-22T08:15:34.144Z</time></trkpt><trkpt lat="49.3076053" lon="5.7466878"><ele>283.0</ele><time>2026-03-22T08:15:35.144Z</time></trkpt><trkpt lat="49.3075641" lon="5.7465923"><ele>283.0</ele><time>2026-03-22T08:15:36.144Z</time></trkpt><trkpt lat="49.3075225" lon="5.7464967"><ele>283.0</ele><time>2026-03-22T08:15:37.144Z</time></trkpt><trkpt lat="49.3074846" lon="5.7464018"><ele>282.66666666666663</ele><time>2026-03-22T08:15:38.144Z</time></trkpt><trkpt lat="49.307442" lon="5.7462963"><ele>282.3333333333333</ele><time>2026-03-22T08:15:39.143Z</time></trkpt><trkpt lat="49.307401" lon="5.7461937"><ele>282.0</ele><time>2026-03-22T08:15:40.144Z</time></trkpt><trkpt lat="49.3073541" lon="5.7460776"><ele>281.6666666666667</ele><time>2026-03-22T08:15:41.143Z</time></trkpt><trkpt lat="49.3073091" lon="5.7459711"><ele>281.33333333333337</ele><time>2026-03-22T08:15:42.143Z</time></trkpt><trkpt lat="49.3072653" lon="5.7458614"><ele>281.0</ele><time>2026-03-22T08:15:43.144Z</time></trkpt><trkpt lat="49.3072347" lon="5.7457507"><ele>281.0</ele><time>2026-03-22T08:15:44.144Z</time></trkpt><trkpt lat="49.307203" lon="5.7456437"><ele>281.0</ele><time>2026-03-22T08:15:45.144Z</time></trkpt><trkpt lat="49.3071728" lon="5.7455496"><ele>281.0</ele><time>2026-03-22T08:15:46.144Z</time></trkpt><trkpt lat="49.3071341" lon="5.7454565"><ele>281.0</ele><time>2026-03-22T08:15:47.144Z</time></trkpt><trkpt lat="49.3070993" lon="5.7453575"><ele>281.0</ele><time>2026-03-22T08:15:48.144Z</time></trkpt><trkpt lat="49.3070686" lon="5.7452493"><ele>281.0</ele><time>2026-03-22T08:15:49.144Z</time></trkpt><trkpt lat="49.3070293" lon="5.7451293"><ele>280.0</ele><time>2026-03-22T08:15:50.143Z</time></trkpt><trkpt lat="49.3069887" lon="5.7450119"><ele>279.0</ele><time>2026-03-22T08:15:51.144Z</time></trkpt><trkpt lat="49.3069434" lon="5.7448895"><ele>278.0</ele><time>2026-03-22T08:15:52.144Z</time></trkpt><trkpt lat="49.3068977" lon="5.7447656"><ele>277.0</ele><time>2026-03-22T08:15:53.145Z</time></trkpt><trkpt lat="49.3068527" lon="5.7446352"><ele>276.0</ele><time>2026-03-22T08:15:54.144Z</time></trkpt><trkpt lat="49.3068089" lon="5.7445105"><ele>276.0</ele><time>2026-03-22T08:15:55.144Z</time></trkpt><trkpt lat="49.3067656" lon="5.7443803"><ele>276.0</ele><time>2026-03-22T08:15:56.144Z</time></trkpt><trkpt lat="49.3067278" lon="5.7442459"><ele>276.0</ele><time>2026-03-22T08:15:57.144Z</time></trkpt><trkpt lat="49.306708" lon="5.7441214"><ele>276.0</ele><time>2026-03-22T08:15:58.144Z</time></trkpt><trkpt lat="49.3066901" lon="5.7440095"><ele>276.0</ele><time>2026-03-22T08:15:59.144Z</time></trkpt><trkpt lat="49.3066735" lon="5.7438536"><ele>275.5</ele><time>2026-03-22T08:16:01.143Z</time></trkpt><trkpt lat="49.3066822" lon="5.7437287"><ele>275.0</ele><time>2026-03-22T08:16:15.144Z</time></trkpt><trkpt lat="49.3067004" lon="5.743622"><ele>274.5</ele><time>2026-03-22T08:16:17.144Z</time></trkpt><trkpt lat="49.306732" lon="5.7434895"><ele>274.0</ele><time>2026-03-22T08:16:19.143Z</time></trkpt><trkpt lat="49.3068147" lon="5.743443"><ele>273.5</ele><time>2026-03-22T08:16:21.144Z</time></trkpt><trkpt lat="49.3069173" lon="5.7435181"><ele>273.0</ele><time>2026-03-22T08:16:23.144Z</time></trkpt><trkpt lat="49.3069646" lon="5.7435859"><ele>272.8333333333333</ele><time>2026-03-22T08:16:24.143Z</time></trkpt><trkpt lat="49.3070124" lon="5.7436661"><ele>272.6666666666667</ele><time>2026-03-22T08:16:25.144Z</time></trkpt><trkpt lat="49.3070603" lon="5.7437554"><ele>272.5</ele><time>2026-03-22T08:16:26.144Z</time></trkpt><trkpt lat="49.3071088" lon="5.7438311"><ele>272.33333333333337</ele><time>2026-03-22T08:16:27.144Z</time></trkpt><trkpt lat="49.3072177" lon="5.7438716"><ele>272.1666666666667</ele><time>2026-03-22T08:16:29.144Z</time></trkpt><trkpt lat="49.3073089" lon="5.7437669"><ele>272.0</ele><time>2026-03-22T08:16:31.144Z</time></trkpt><trkpt lat="49.3073543" lon="5.743684"><ele>271.5</ele><time>2026-03-22T08:16:32.144Z</time></trkpt><trkpt lat="49.3074048" lon="5.7435866"><ele>271.0</ele><time>2026-03-22T08:16:33.144Z</time></trkpt><trkpt lat="49.3074523" lon="5.7434792"><ele>270.5</ele><time>2026-03-22T08:16:34.143Z</time></trkpt><trkpt lat="49.3074918" lon="5.7433647"><ele>270.0</ele><time>2026-03-22T08:16:35.143Z</time></trkpt><trkpt lat="49.3075184" lon="5.7432381"><ele>269.5</ele><time>2026-03-22T08:16:36.144Z</time></trkpt><trkpt lat="49.3075206" lon="5.7431053"><ele>269.0</ele><time>2026-03-22T08:16:37.145Z</time></trkpt><trkpt lat="49.3075073" lon="5.742975"><ele>269.0</ele><time>2026-03-22T08:16:38.144Z</time></trkpt><trkpt lat="49.3074867" lon="5.7428397"><ele>269.0</ele><time>2026-03-22T08:16:39.144Z</time></trkpt><trkpt lat="49.3074638" lon="5.7427065"><ele>269.0</ele><time>2026-03-22T08:16:40.144Z</time></trkpt><trkpt lat="49.3074367" lon="5.742571"><ele>269.0</ele><time>2026-03-22T08:16:41.145Z</time></trkpt><trkpt lat="49.3074084" lon="5.7424399"><ele>269.0</ele><time>2026-03-22T08:16:42.144Z</time></trkpt><trkpt lat="49.3073733" lon="5.7423248"><ele>269.0</ele><time>2026-03-22T08:16:43.144Z</time></trkpt><trkpt lat="49.307344" lon="5.7422393"><ele>268.83333333333337</ele><time>2026-03-22T08:16:44.145Z</time></trkpt><trkpt lat="49.3073349" lon="5.742142"><ele>268.6666666666667</ele><time>2026-03-22T08:16:48.144Z</time></trkpt><trkpt lat="49.3073008" lon="5.7420211"><ele>268.5</ele><time>2026-03-22T08:16:53.144Z</time></trkpt><trkpt lat="49.3072294" lon="5.7419218"><ele>268.3333333333333</ele><time>2026-03-22T08:16:55.145Z</time></trkpt><trkpt lat="49.3071885" lon="5.7418309"><ele>268.16666666666663</ele><time>2026-03-22T08:16:56.143Z</time></trkpt><trkpt lat="49.3071436" lon="5.7417268"><ele>268.0</ele><time>2026-03-22T08:16:57.144Z</time></trkpt><trkpt lat="49.3070949" lon="5.7416218"><ele>268.0</ele><time>2026-03-22T08:16:58.145Z</time></trkpt><trkpt lat="49.3070399" lon="5.7415118"><ele>268.0</ele><time>2026-03-22T08:16:59.143Z</time></trkpt><trkpt lat="49.3069821" lon="5.7414031"><ele>268.0</ele><time>2026-03-22T08:17:00.144Z</time></trkpt><trkpt lat="49.3069242" lon="5.7412986"><ele>268.0</ele><time>2026-03-22T08:17:01.143Z</time></trkpt><trkpt lat="49.3068664" lon="5.7411944"><ele>268.0</ele><time>2026-03-22T08:17:02.143Z</time></trkpt><trkpt lat="49.3068167" lon="5.7410913"><ele>268.0</ele><time>2026-03-22T08:17:03.144Z</time></trkpt><trkpt lat="49.3067788" lon="5.7409778"><ele>267.3333333333333</ele><time>2026-03-22T08:17:04.144Z</time></trkpt><trkpt lat="49.3067557" lon="5.7408645"><ele>266.66666666666663</ele><time>2026-03-22T08:17:05.144Z</time></trkpt><trkpt lat="49.3067367" lon="5.740748"><ele>266.0</ele><time>2026-03-22T08:17:06.145Z</time></trkpt><trkpt lat="49.3067234" lon="5.7406372"><ele>265.3333333333333</ele><time>2026-03-22T08:17:07.144Z</time></trkpt><trkpt lat="49.306723" lon="5.7404697"><ele>264.6666666666667</ele><time>2026-03-22T08:17:09.144Z</time></trkpt><trkpt lat="49.3067296" lon="5.7403577"><ele>264.0</ele><time>2026-03-22T08:17:11.144Z</time></trkpt><trkpt lat="49.3067066" lon="5.7402314"><ele>263.59999999999997</ele><time>2026-03-22T08:17:16.144Z</time></trkpt><trkpt lat="49.3066543" lon="5.7401418"><ele>263.2</ele><time>2026-03-22T08:17:18.143Z</time></trkpt><trkpt lat="49.306577" lon="5.7399836"><ele>262.79999999999995</ele><time>2026-03-22T08:17:20.143Z</time></trkpt><trkpt lat="49.3065271" lon="5.7398795"><ele>262.4</ele><time>2026-03-22T08:17:21.143Z</time></trkpt><trkpt lat="49.306472" lon="5.7397805"><ele>262.0</ele><time>2026-03-22T08:17:22.144Z</time></trkpt><trkpt lat="49.3064133" lon="5.7396769"><ele>262.0</ele><time>2026-03-22T08:17:23.144Z</time></trkpt><trkpt lat="49.3063502" lon="5.7395728"><ele>262.0</ele><time>2026-03-22T08:17:24.144Z</time></trkpt><trkpt lat="49.3062829" lon="5.7394653"><ele>262.0</ele><time>2026-03-22T08:17:25.145Z</time></trkpt><trkpt lat="49.3062124" lon="5.739348"><ele>262.0</ele><time>2026-03-22T08:17:26.144Z</time></trkpt><trkpt lat="49.3061401" lon="5.7392214"><ele>262.0</ele><time>2026-03-22T08:17:27.145Z</time></trkpt><trkpt lat="49.3060707" lon="5.7390891"><ele>262.0</ele><time>2026-03-22T08:17:28.143Z</time></trkpt><trkpt lat="49.3060062" lon="5.7389395"><ele>262.0</ele><time>2026-03-22T08:17:29.144Z</time></trkpt><trkpt lat="49.3059453" lon="5.7387783"><ele>262.0</ele><time>2026-03-22T08:17:30.144Z</time></trkpt><trkpt lat="49.305892" lon="5.7386079"><ele>262.0</ele><time>2026-03-22T08:17:31.143Z</time></trkpt><trkpt lat="49.3058432" lon="5.7384288"><ele>261.25</ele><time>2026-03-22T08:17:32.143Z</time></trkpt><trkpt lat="49.3057974" lon="5.7382524"><ele>260.5</ele><time>2026-03-22T08:17:33.143Z</time></trkpt><trkpt lat="49.3057528" lon="5.7380761"><ele>259.75</ele><time>2026-03-22T08:17:34.144Z</time></trkpt><trkpt lat="49.305708" lon="5.7379006"><ele>259.0</ele><time>2026-03-22T08:17:35.144Z</time></trkpt><trkpt lat="49.3056642" lon="5.7377217"><ele>258.75</ele><time>2026-03-22T08:17:36.144Z</time></trkpt><trkpt lat="49.3056228" lon="5.7375416"><ele>258.5</ele><time>2026-03-22T08:17:37.143Z</time></trkpt><trkpt lat="49.3055759" lon="5.7373587"><ele>258.25</ele><time>2026-03-22T08:17:38.143Z</time></trkpt><trkpt lat="49.3055276" lon="5.7371759"><ele>258.0</ele><time>2026-03-22T08:17:39.144Z</time></trkpt><trkpt lat="49.3054806" lon="5.7369916"><ele>258.0</ele><time>2026-03-22T08:17:40.143Z</time></trkpt><trkpt lat="49.3054324" lon="5.7368057"><ele>258.0</ele><time>2026-03-22T08:17:41.143Z</time></trkpt><trkpt lat="49.3053844" lon="5.7366198"><ele>258.0</ele><time>2026-03-22T08:17:42.143Z</time></trkpt><trkpt lat="49.3053367" lon="5.7364306"><ele>258.0</ele><time>2026-03-22T08:17:43.144Z</time></trkpt><trkpt lat="49.3052904" lon="5.73624"><ele>258.0</ele><time>2026-03-22T08:17:44.143Z</time></trkpt><trkpt lat="49.3052481" lon="5.7360551"><ele>258.0</ele><time>2026-03-22T08:17:45.145Z</time></trkpt><trkpt lat="49.3052033" lon="5.7358736"><ele>258.0</ele><time>2026-03-22T08:17:46.144Z</time></trkpt><trkpt lat="49.30516" lon="5.7356906"><ele>258.0</ele><time>2026-03-22T08:17:47.144Z</time></trkpt><trkpt lat="49.3051164" lon="5.7355095"><ele>257.75</ele><time>2026-03-22T08:17:48.144Z</time></trkpt><trkpt lat="49.3050733" lon="5.7353231"><ele>257.5</ele><time>2026-03-22T08:17:49.144Z</time></trkpt><trkpt lat="49.3050302" lon="5.7351356"><ele>257.25</ele><time>2026-03-22T08:17:50.143Z</time></trkpt><trkpt lat="49.3049894" lon="5.7349431"><ele>257.0</ele><time>2026-03-22T08:17:51.144Z</time></trkpt><trkpt lat="49.3049465" lon="5.7347527"><ele>256.5</ele><time>2026-03-22T08:17:52.145Z</time></trkpt><trkpt lat="49.3049028" lon="5.7345643"><ele>256.0</ele><time>2026-03-22T08:17:53.143Z</time></trkpt><trkpt lat="49.3048602" lon="5.7343813"><ele>255.5</ele><time>2026-03-22T08:17:54.143Z</time></trkpt><trkpt lat="49.3048111" lon="5.7342017"><ele>255.0</ele><time>2026-03-22T08:17:55.143Z</time></trkpt><trkpt lat="49.304761" lon="5.7340257"><ele>255.25</ele><time>2026-03-22T08:17:56.144Z</time></trkpt><trkpt lat="49.3047168" lon="5.7338488"><ele>255.5</ele><time>2026-03-22T08:17:57.144Z</time></trkpt><trkpt lat="49.3046886" lon="5.7336587"><ele>255.75</ele><time>2026-03-22T08:17:58.143Z</time></trkpt><trkpt lat="49.3046688" lon="5.7334611"><ele>256.0</ele><time>2026-03-22T08:17:59.144Z</time></trkpt><trkpt lat="49.3046595" lon="5.7332583"><ele>255.5</ele><time>2026-03-22T08:18:00.144Z</time></trkpt><trkpt lat="49.304651" lon="5.7330554"><ele>255.0</ele><time>2026-03-22T08:18:01.143Z</time></trkpt><trkpt lat="49.3046472" lon="5.7328507"><ele>254.5</ele><time>2026-03-22T08:18:02.143Z</time></trkpt><trkpt lat="49.3046457" lon="5.7326462"><ele>254.0</ele><time>2026-03-22T08:18:03.145Z</time></trkpt><trkpt lat="49.3046382" lon="5.7324495"><ele>253.75</ele><time>2026-03-22T08:18:04.144Z</time></trkpt><trkpt lat="49.304631" lon="5.7322588"><ele>253.5</ele><time>2026-03-22T08:18:05.144Z</time></trkpt><trkpt lat="49.3046294" lon="5.7320729"><ele>253.25</ele><time>2026-03-22T08:18:06.144Z</time></trkpt><trkpt lat="49.3046281" lon="5.7318922"><ele>253.0</ele><time>2026-03-22T08:18:07.144Z</time></trkpt><trkpt lat="49.3046274" lon="5.7317205"><ele>253.0</ele><time>2026-03-22T08:18:08.143Z</time></trkpt><trkpt lat="49.3046264" lon="5.7315658"><ele>253.0</ele><time>2026-03-22T08:18:09.144Z</time></trkpt><trkpt lat="49.3046268" lon="5.7314171"><ele>253.0</ele><time>2026-03-22T08:18:10.143Z</time></trkpt><trkpt lat="49.3046266" lon="5.7312668"><ele>253.0</ele><time>2026-03-22T08:18:11.143Z</time></trkpt><trkpt lat="49.3046336" lon="5.731131"><ele>253.0</ele><time>2026-03-22T08:18:12.144Z</time></trkpt><trkpt lat="49.3046414" lon="5.7310185"><ele>253.0</ele><time>2026-03-22T08:18:13.144Z</time></trkpt><trkpt lat="49.3046648" lon="5.7308505"><ele>253.0</ele><time>2026-03-22T08:18:15.144Z</time></trkpt><trkpt lat="49.3046534" lon="5.7307279"><ele>253.0</ele><time>2026-03-22T08:18:18.143Z</time></trkpt><trkpt lat="49.3045671" lon="5.7307247"><ele>253.0</ele><time>2026-03-22T08:18:21.144Z</time></trkpt><trkpt lat="49.3044838" lon="5.7307663"><ele>253.0</ele><time>2026-03-22T08:18:23.143Z</time></trkpt><trkpt lat="49.3043718" lon="5.7308082"><ele>253.0</ele><time>2026-03-22T08:18:25.144Z</time></trkpt><trkpt lat="49.304295" lon="5.7308429"><ele>253.0</ele><time>2026-03-22T08:18:26.143Z</time></trkpt><trkpt lat="49.3042114" lon="5.7308892"><ele>253.0</ele><time>2026-03-22T08:18:27.144Z</time></trkpt><trkpt lat="49.3041218" lon="5.7309388"><ele>253.0</ele><time>2026-03-22T08:18:28.143Z</time></trkpt><trkpt lat="49.3040284" lon="5.7309905"><ele>253.0</ele><time>2026-03-22T08:18:29.143Z</time></trkpt><trkpt lat="49.3039356" lon="5.7310384"><ele>253.8</ele><time>2026-03-22T08:18:30.143Z</time></trkpt><trkpt lat="49.3038397" lon="5.7310865"><ele>254.60000000000002</ele><time>2026-03-22T08:18:31.144Z</time></trkpt><trkpt lat="49.3037407" lon="5.7311364"><ele>255.39999999999998</ele><time>2026-03-22T08:18:32.143Z</time></trkpt><trkpt lat="49.3036434" lon="5.731192"><ele>256.2</ele><time>2026-03-22T08:18:33.144Z</time></trkpt><trkpt lat="49.3035451" lon="5.7312479"><ele>257.0</ele><time>2026-03-22T08:18:34.144Z</time></trkpt><trkpt lat="49.3034488" lon="5.7313069"><ele>257.0</ele><time>2026-03-22T08:18:35.143Z</time></trkpt><trkpt lat="49.3033497" lon="5.7313716"><ele>257.0</ele><time>2026-03-22T08:18:36.144Z</time></trkpt><trkpt lat="49.3032513" lon="5.7314312"><ele>257.0</ele><time>2026-03-22T08:18:37.143Z</time></trkpt><trkpt lat="49.3031546" lon="5.7314877"><ele>257.0</ele><time>2026-03-22T08:18:38.144Z</time></trkpt><trkpt lat="49.3030609" lon="5.7315361"><ele>257.0</ele><time>2026-03-22T08:18:39.143Z</time></trkpt><trkpt lat="49.3029711" lon="5.7315735"><ele>259.2</ele><time>2026-03-22T08:18:40.144Z</time></trkpt><trkpt lat="49.3028838" lon="5.731613"><ele>261.4</ele><time>2026-03-22T08:18:41.143Z</time></trkpt><trkpt lat="49.3027905" lon="5.7316656"><ele>263.6</ele><time>2026-03-22T08:18:42.143Z</time></trkpt><trkpt lat="49.302698" lon="5.7317215"><ele>265.8</ele><time>2026-03-22T08:18:43.144Z</time></trkpt><trkpt lat="49.3026045" lon="5.7317728"><ele>268.0</ele><time>2026-03-22T08:18:44.144Z</time></trkpt><trkpt lat="49.3025088" lon="5.7318103"><ele>268.0</ele><time>2026-03-22T08:18:45.144Z</time></trkpt><trkpt lat="49.3024182" lon="5.7318466"><ele>268.0</ele><time>2026-03-22T08:18:46.143Z</time></trkpt><trkpt lat="49.30233" lon="5.7318781"><ele>268.0</ele><time>2026-03-22T08:18:47.143Z</time></trkpt><trkpt lat="49.3022437" lon="5.7319112"><ele>268.0</ele><time>2026-03-22T08:18:48.143Z</time></trkpt><trkpt lat="49.3021531" lon="5.7319547"><ele>268.0</ele><time>2026-03-22T08:18:49.144Z</time></trkpt><trkpt lat="49.3020612" lon="5.7320001"><ele>270.0</ele><time>2026-03-22T08:18:50.143Z</time></trkpt><trkpt lat="49.3019679" lon="5.7320479"><ele>272.0</ele><time>2026-03-22T08:18:51.144Z</time></trkpt><trkpt lat="49.3018697" lon="5.7321006"><ele>274.0</ele><time>2026-03-22T08:18:52.143Z</time></trkpt><trkpt lat="49.3017715" lon="5.7321621"><ele>276.0</ele><time>2026-03-22T08:18:53.143Z</time></trkpt><trkpt lat="49.3016702" lon="5.7322304"><ele>278.0</ele><time>2026-03-22T08:18:54.144Z</time></trkpt><trkpt lat="49.3015646" lon="5.7323025"><ele>278.0</ele><time>2026-03-22T08:18:55.144Z</time></trkpt><trkpt lat="49.3014603" lon="5.7323812"><ele>278.0</ele><time>2026-03-22T08:18:56.143Z</time></trkpt><trkpt lat="49.3013564" lon="5.7324616"><ele>278.0</ele><time>2026-03-22T08:18:57.144Z</time></trkpt><trkpt lat="49.3012545" lon="5.7325427"><ele>278.0</ele><time>2026-03-22T08:18:58.143Z</time></trkpt><trkpt lat="49.3011576" lon="5.7326247"><ele>277.5</ele><time>2026-03-22T08:18:59.144Z</time></trkpt><trkpt lat="49.3010601" lon="5.7327123"><ele>277.0</ele><time>2026-03-22T08:19:00.144Z</time></trkpt><trkpt lat="49.3009635" lon="5.7328026"><ele>276.5</ele><time>2026-03-22T08:19:01.143Z</time></trkpt><trkpt lat="49.3008673" lon="5.7328946"><ele>276.0</ele><time>2026-03-22T08:19:02.144Z</time></trkpt><trkpt lat="49.3007709" lon="5.7329859"><ele>276.0</ele><time>2026-03-22T08:19:03.143Z</time></trkpt><trkpt lat="49.3006739" lon="5.7330792"><ele>276.0</ele><time>2026-03-22T08:19:04.144Z</time></trkpt><trkpt lat="49.3005825" lon="5.7331732"><ele>276.0</ele><time>2026-03-22T08:19:05.144Z</time></trkpt><trkpt lat="49.3004943" lon="5.7332579"><ele>276.0</ele><time>2026-03-22T08:19:06.144Z</time></trkpt><trkpt lat="49.3004109" lon="5.7333418"><ele>276.0</ele><time>2026-03-22T08:19:07.143Z</time></trkpt><trkpt lat="49.3003328" lon="5.7334149"><ele>274.6666666666667</ele><time>2026-03-22T08:19:08.144Z</time></trkpt><trkpt lat="49.3002603" lon="5.7334918"><ele>273.3333333333333</ele><time>2026-03-22T08:19:09.144Z</time></trkpt><trkpt lat="49.300189" lon="5.733565"><ele>272.0</ele><time>2026-03-22T08:19:10.144Z</time></trkpt><trkpt lat="49.3001162" lon="5.7336394"><ele>270.66666666666663</ele><time>2026-03-22T08:19:11.145Z</time></trkpt><trkpt lat="49.3000437" lon="5.7337181"><ele>269.3333333333333</ele><time>2026-03-22T08:19:12.145Z</time></trkpt><trkpt lat="49.299971" lon="5.7337972"><ele>268.0</ele><time>2026-03-22T08:19:13.144Z</time></trkpt><trkpt lat="49.2998977" lon="5.7338777"><ele>267.5</ele><time>2026-03-22T08:19:14.144Z</time></trkpt><trkpt lat="49.2998259" lon="5.7339549"><ele>267.0</ele><time>2026-03-22T08:19:15.144Z</time></trkpt><trkpt lat="49.2997551" lon="5.7340238"><ele>266.5</ele><time>2026-03-22T08:19:16.143Z</time></trkpt><trkpt lat="49.2996933" lon="5.7340854"><ele>266.0</ele><time>2026-03-22T08:19:17.144Z</time></trkpt><trkpt lat="49.2996359" lon="5.7341429"><ele>265.5</ele><time>2026-03-22T08:19:18.143Z</time></trkpt><trkpt lat="49.299538" lon="5.7342418"><ele>265.0</ele><time>2026-03-22T08:19:20.144Z</time></trkpt><trkpt lat="49.2994626" lon="5.7343163"><ele>263.3333333333333</ele><time>2026-03-22T08:19:22.144Z</time></trkpt><trkpt lat="49.2993927" lon="5.7343145"><ele>261.66666666666663</ele><time>2026-03-22T08:19:25.143Z</time></trkpt><trkpt lat="49.2993245" lon="5.7342054"><ele>260.0</ele><time>2026-03-22T08:19:28.143Z</time></trkpt><trkpt lat="49.2992588" lon="5.7340689"><ele>258.3333333333333</ele><time>2026-03-22T08:19:30.144Z</time></trkpt><trkpt lat="49.299216" lon="5.7339888"><ele>256.6666666666667</ele><time>2026-03-22T08:19:31.143Z</time></trkpt><trkpt lat="49.2991703" lon="5.7339006"><ele>255.0</ele><time>2026-03-22T08:19:32.144Z</time></trkpt><trkpt lat="49.2991236" lon="5.7338055"><ele>255.0</ele><time>2026-03-22T08:19:33.143Z</time></trkpt><trkpt lat="49.2990711" lon="5.7336982"><ele>255.0</ele><time>2026-03-22T08:19:34.144Z</time></trkpt><trkpt lat="49.299017" lon="5.7335879"><ele>255.0</ele><time>2026-03-22T08:19:35.143Z</time></trkpt><trkpt lat="49.2989589" lon="5.73348"><ele>255.0</ele><time>2026-03-22T08:19:36.144Z</time></trkpt><trkpt lat="49.2988968" lon="5.7333716"><ele>255.0</ele><time>2026-03-22T08:19:37.143Z</time></trkpt><trkpt lat="49.2988282" lon="5.7332581"><ele>254.2</ele><time>2026-03-22T08:19:38.143Z</time></trkpt><trkpt lat="49.2987642" lon="5.7331409"><ele>253.4</ele><time>2026-03-22T08:19:39.145Z</time></trkpt><trkpt lat="49.2986993" lon="5.7330195"><ele>252.60000000000002</ele><time>2026-03-22T08:19:40.144Z</time></trkpt><trkpt lat="49.2986365" lon="5.7329005"><ele>251.8</ele><time>2026-03-22T08:19:41.144Z</time></trkpt><trkpt lat="49.2985698" lon="5.732775"><ele>251.0</ele><time>2026-03-22T08:19:42.143Z</time></trkpt><trkpt lat="49.2985054" lon="5.7326579"><ele>251.0</ele><time>2026-03-22T08:19:43.143Z</time></trkpt><trkpt lat="49.2984461" lon="5.7325546"><ele>251.00000000000003</ele><time>2026-03-22T08:19:44.144Z</time></trkpt><trkpt lat="49.2983901" lon="5.7324488"><ele>251.00000000000003</ele><time>2026-03-22T08:19:45.144Z</time></trkpt><trkpt lat="49.2983242" lon="5.732341"><ele>251.0</ele><time>2026-03-22T08:19:46.144Z</time></trkpt><trkpt lat="49.2982585" lon="5.7322268"><ele>251.0</ele><time>2026-03-22T08:19:47.144Z</time></trkpt><trkpt lat="49.2981909" lon="5.732106"><ele>251.0</ele><time>2026-03-22T08:19:48.143Z</time></trkpt><trkpt lat="49.2981228" lon="5.731981"><ele>251.00000000000003</ele><time>2026-03-22T08:19:49.143Z</time></trkpt><trkpt lat="49.2980504" lon="5.7318442"><ele>251.00000000000003</ele><time>2026-03-22T08:19:50.144Z</time></trkpt><trkpt lat="49.2979794" lon="5.7317079"><ele>251.0</ele><time>2026-03-22T08:19:51.143Z</time></trkpt><trkpt lat="49.2979068" lon="5.7315749"><ele>251.0</ele><time>2026-03-22T08:19:52.144Z</time></trkpt><trkpt lat="49.2978328" lon="5.7314433"><ele>251.0</ele><time>2026-03-22T08:19:53.144Z</time></trkpt><trkpt lat="49.2977576" lon="5.7313125"><ele>251.00000000000003</ele><time>2026-03-22T08:19:54.145Z</time></trkpt><trkpt lat="49.2976895" lon="5.7311827"><ele>251.00000000000003</ele><time>2026-03-22T08:19:55.144Z</time></trkpt><trkpt lat="49.2976206" lon="5.7310552"><ele>251.0</ele><time>2026-03-22T08:19:56.144Z</time></trkpt><trkpt lat="49.2975494" lon="5.7309238"><ele>251.0</ele><time>2026-03-22T08:19:57.143Z</time></trkpt><trkpt lat="49.2974776" lon="5.7307954"><ele>251.20000000000002</ele><time>2026-03-22T08:19:58.143Z</time></trkpt><trkpt lat="49.2974079" lon="5.7306693"><ele>251.40000000000003</ele><time>2026-03-22T08:19:59.143Z</time></trkpt><trkpt lat="49.297335" lon="5.7305426"><ele>251.6</ele><time>2026-03-22T08:20:00.143Z</time></trkpt><trkpt lat="49.2972643" lon="5.7304127"><ele>251.8</ele><time>2026-03-22T08:20:01.144Z</time></trkpt><trkpt lat="49.2971964" lon="5.7302885"><ele>252.0</ele><time>2026-03-22T08:20:02.143Z</time></trkpt><trkpt lat="49.2971297" lon="5.7301741"><ele>251.39999999999998</ele><time>2026-03-22T08:20:03.144Z</time></trkpt><trkpt lat="49.2970639" lon="5.730057"><ele>250.79999999999998</ele><time>2026-03-22T08:20:04.145Z</time></trkpt><trkpt lat="49.2969978" lon="5.7299408"><ele>250.2</ele><time>2026-03-22T08:20:05.143Z</time></trkpt><trkpt lat="49.2969289" lon="5.7298206"><ele>249.6</ele><time>2026-03-22T08:20:06.143Z</time></trkpt><trkpt lat="49.2968629" lon="5.7297036"><ele>249.0</ele><time>2026-03-22T08:20:07.144Z</time></trkpt><trkpt lat="49.296797" lon="5.7295838"><ele>249.0</ele><time>2026-03-22T08:20:08.144Z</time></trkpt><trkpt lat="49.296732" lon="5.7294633"><ele>248.99999999999997</ele><time>2026-03-22T08:20:09.144Z</time></trkpt><trkpt lat="49.2966606" lon="5.7293392"><ele>248.99999999999997</ele><time>2026-03-22T08:20:10.145Z</time></trkpt><trkpt lat="49.2965925" lon="5.7292133"><ele>249.0</ele><time>2026-03-22T08:20:11.143Z</time></trkpt><trkpt lat="49.2965247" lon="5.7290915"><ele>249.0</ele><time>2026-03-22T08:20:12.144Z</time></trkpt><trkpt lat="49.2964564" lon="5.7289702"><ele>249.0</ele><time>2026-03-22T08:20:13.144Z</time></trkpt><trkpt lat="49.2963882" lon="5.7288494"><ele>248.99999999999997</ele><time>2026-03-22T08:20:14.144Z</time></trkpt><trkpt lat="49.296322" lon="5.7287262"><ele>248.99999999999997</ele><time>2026-03-22T08:20:15.144Z</time></trkpt><trkpt lat="49.2962525" lon="5.7286046"><ele>249.0</ele><time>2026-03-22T08:20:16.145Z</time></trkpt><trkpt lat="49.2961818" lon="5.7284867"><ele>249.0</ele><time>2026-03-22T08:20:17.143Z</time></trkpt><trkpt lat="49.2961154" lon="5.7283681"><ele>249.2</ele><time>2026-03-22T08:20:18.144Z</time></trkpt><trkpt lat="49.2960497" lon="5.728248"><ele>249.39999999999998</ele><time>2026-03-22T08:20:19.144Z</time></trkpt><trkpt lat="49.2959864" lon="5.7281341"><ele>249.6</ele><time>2026-03-22T08:20:20.144Z</time></trkpt><trkpt lat="49.2959111" lon="5.7280293"><ele>249.8</ele><time>2026-03-22T08:20:21.144Z</time></trkpt><trkpt lat="49.2958309" lon="5.7279242"><ele>250.0</ele><time>2026-03-22T08:20:22.144Z</time></trkpt><trkpt lat="49.2957472" lon="5.7278159"><ele>250.25</ele><time>2026-03-22T08:20:23.144Z</time></trkpt><trkpt lat="49.2956638" lon="5.7277035"><ele>250.5</ele><time>2026-03-22T08:20:24.143Z</time></trkpt><trkpt lat="49.2955762" lon="5.7275925"><ele>250.75</ele><time>2026-03-22T08:20:25.143Z</time></trkpt><trkpt lat="49.2954865" lon="5.7274797"><ele>251.0</ele><time>2026-03-22T08:20:26.144Z</time></trkpt><trkpt lat="49.2953933" lon="5.7273647"><ele>250.25</ele><time>2026-03-22T08:20:27.144Z</time></trkpt><trkpt lat="49.2952993" lon="5.7272524"><ele>249.5</ele><time>2026-03-22T08:20:28.144Z</time></trkpt><trkpt lat="49.2952051" lon="5.7271369"><ele>248.75</ele><time>2026-03-22T08:20:29.144Z</time></trkpt><trkpt lat="49.2951133" lon="5.7270208"><ele>248.0</ele><time>2026-03-22T08:20:30.144Z</time></trkpt><trkpt lat="49.2950179" lon="5.7268988"><ele>247.75</ele><time>2026-03-22T08:20:31.143Z</time></trkpt><trkpt lat="49.294923" lon="5.7267806"><ele>247.5</ele><time>2026-03-22T08:20:32.144Z</time></trkpt><trkpt lat="49.2948278" lon="5.7266646"><ele>247.25</ele><time>2026-03-22T08:20:33.143Z</time></trkpt><trkpt lat="49.2947346" lon="5.7265499"><ele>247.0</ele><time>2026-03-22T08:20:34.144Z</time></trkpt><trkpt lat="49.294644" lon="5.7264346"><ele>247.0</ele><time>2026-03-22T08:20:35.143Z</time></trkpt><trkpt lat="49.2945541" lon="5.7263245"><ele>247.0</ele><time>2026-03-22T08:20:36.144Z</time></trkpt><trkpt lat="49.2944604" lon="5.7262105"><ele>247.0</ele><time>2026-03-22T08:20:37.145Z</time></trkpt><trkpt lat="49.2943699" lon="5.7260991"><ele>247.0</ele><time>2026-03-22T08:20:38.143Z</time></trkpt><trkpt lat="49.2942796" lon="5.7259886"><ele>247.2</ele><time>2026-03-22T08:20:39.144Z</time></trkpt><trkpt lat="49.2941909" lon="5.7258805"><ele>247.39999999999998</ele><time>2026-03-22T08:20:40.144Z</time></trkpt><trkpt lat="49.2941016" lon="5.7257708"><ele>247.60000000000002</ele><time>2026-03-22T08:20:41.144Z</time></trkpt><trkpt lat="49.2940137" lon="5.7256633"><ele>247.8</ele><time>2026-03-22T08:20:42.144Z</time></trkpt><trkpt lat="49.2939305" lon="5.7255666"><ele>248.0</ele><time>2026-03-22T08:20:43.144Z</time></trkpt><trkpt lat="49.2938533" lon="5.7254756"><ele>247.66666666666669</ele><time>2026-03-22T08:20:44.145Z</time></trkpt><trkpt lat="49.2937857" lon="5.725383"><ele>247.33333333333334</ele><time>2026-03-22T08:20:45.144Z</time></trkpt><trkpt lat="49.2937209" lon="5.7252974"><ele>247.0</ele><time>2026-03-22T08:20:46.144Z</time></trkpt><trkpt lat="49.293656" lon="5.7252254"><ele>246.66666666666669</ele><time>2026-03-22T08:20:47.144Z</time></trkpt><trkpt lat="49.2936013" lon="5.7251621"><ele>246.33333333333334</ele><time>2026-03-22T08:20:48.143Z</time></trkpt><trkpt lat="49.2935306" lon="5.7250695"><ele>246.0</ele><time>2026-03-22T08:20:50.144Z</time></trkpt><trkpt lat="49.2934717" lon="5.7250078"><ele>246.0</ele><time>2026-03-22T08:20:58.144Z</time></trkpt><trkpt lat="49.2933946" lon="5.7250707"><ele>246.00000000000003</ele><time>2026-03-22T08:21:03.143Z</time></trkpt><trkpt lat="49.2933224" lon="5.7252011"><ele>246.00000000000003</ele><time>2026-03-22T08:21:05.144Z</time></trkpt><trkpt lat="49.2932338" lon="5.7253402"><ele>246.0</ele><time>2026-03-22T08:21:07.143Z</time></trkpt><trkpt lat="49.2931847" lon="5.7254095"><ele>246.0</ele><time>2026-03-22T08:21:08.143Z</time></trkpt><trkpt lat="49.2931335" lon="5.7254742"><ele>246.0</ele><time>2026-03-22T08:21:09.144Z</time></trkpt><trkpt lat="49.2930724" lon="5.7255137"><ele>246.0</ele><time>2026-03-22T08:21:10.144Z</time></trkpt><trkpt lat="49.292949" lon="5.7254732"><ele>246.0</ele><time>2026-03-22T08:21:12.144Z</time></trkpt><trkpt lat="49.2928778" lon="5.7254615"><ele>246.0</ele><time>2026-03-22T08:21:13.143Z</time></trkpt><trkpt lat="49.2928047" lon="5.725473"><ele>246.0</ele><time>2026-03-22T08:21:14.145Z</time></trkpt><trkpt lat="49.2927238" lon="5.7254923"><ele>246.0</ele><time>2026-03-22T08:21:15.144Z</time></trkpt><trkpt lat="49.2926334" lon="5.7255018"><ele>246.0</ele><time>2026-03-22T08:21:16.144Z</time></trkpt><trkpt lat="49.2925327" lon="5.7255097"><ele>246.00000000000003</ele><time>2026-03-22T08:21:17.144Z</time></trkpt><trkpt lat="49.2924306" lon="5.7255139"><ele>246.00000000000003</ele><time>2026-03-22T08:21:18.144Z</time></trkpt><trkpt lat="49.2923227" lon="5.7255198"><ele>246.0</ele><time>2026-03-22T08:21:19.144Z</time></trkpt><trkpt lat="49.2922114" lon="5.7255206"><ele>246.0</ele><time>2026-03-22T08:21:20.143Z</time></trkpt><trkpt lat="49.2920942" lon="5.7255232"><ele>247.25</ele><time>2026-03-22T08:21:21.144Z</time></trkpt><trkpt lat="49.291977" lon="5.725518"><ele>248.5</ele><time>2026-03-22T08:21:22.143Z</time></trkpt><trkpt lat="49.2918591" lon="5.7255099"><ele>249.75</ele><time>2026-03-22T08:21:23.144Z</time></trkpt><trkpt lat="49.2917419" lon="5.7255077"><ele>251.0</ele><time>2026-03-22T08:21:24.143Z</time></trkpt><trkpt lat="49.2916292" lon="5.7255141"><ele>251.0</ele><time>2026-03-22T08:21:25.143Z</time></trkpt><trkpt lat="49.2915227" lon="5.725523"><ele>251.00000000000003</ele><time>2026-03-22T08:21:26.144Z</time></trkpt><trkpt lat="49.2914185" lon="5.7255337"><ele>251.00000000000003</ele><time>2026-03-22T08:21:27.143Z</time></trkpt><trkpt lat="49.2913179" lon="5.7255397"><ele>251.0</ele><time>2026-03-22T08:21:28.144Z</time></trkpt><trkpt lat="49.2912233" lon="5.7255481"><ele>251.0</ele><time>2026-03-22T08:21:29.143Z</time></trkpt><trkpt lat="49.2911344" lon="5.7255557"><ele>252.16666666666669</ele><time>2026-03-22T08:21:30.143Z</time></trkpt><trkpt lat="49.2910569" lon="5.7255597"><ele>253.33333333333334</ele><time>2026-03-22T08:21:31.144Z</time></trkpt><trkpt lat="49.2909804" lon="5.7255631"><ele>254.5</ele><time>2026-03-22T08:21:32.144Z</time></trkpt><trkpt lat="49.2909058" lon="5.7255632"><ele>255.66666666666669</ele><time>2026-03-22T08:21:33.143Z</time></trkpt><trkpt lat="49.2908408" lon="5.7255604"><ele>256.8333333333333</ele><time>2026-03-22T08:21:34.144Z</time></trkpt><trkpt lat="49.2907367" lon="5.7255823"><ele>258.0</ele><time>2026-03-22T08:21:36.144Z</time></trkpt><trkpt lat="49.2906533" lon="5.725608"><ele>258.4</ele><time>2026-03-22T08:21:40.143Z</time></trkpt><trkpt lat="49.2905368" lon="5.7256434"><ele>258.8</ele><time>2026-03-22T08:21:42.144Z</time></trkpt><trkpt lat="49.2904437" lon="5.7256723"><ele>259.2</ele><time>2026-03-22T08:21:43.143Z</time></trkpt><trkpt lat="49.2903374" lon="5.7257128"><ele>259.6</ele><time>2026-03-22T08:21:44.145Z</time></trkpt><trkpt lat="49.2902235" lon="5.7257553"><ele>260.0</ele><time>2026-03-22T08:21:45.144Z</time></trkpt><trkpt lat="49.2901045" lon="5.7257964"><ele>260.0</ele><time>2026-03-22T08:21:46.144Z</time></trkpt><trkpt lat="49.2899882" lon="5.725834"><ele>260.0</ele><time>2026-03-22T08:21:47.144Z</time></trkpt><trkpt lat="49.2898683" lon="5.725872"><ele>260.0</ele><time>2026-03-22T08:21:48.143Z</time></trkpt><trkpt lat="49.28975" lon="5.7259137"><ele>260.0</ele><time>2026-03-22T08:21:49.143Z</time></trkpt><trkpt lat="49.2896348" lon="5.7259568"><ele>259.8</ele><time>2026-03-22T08:21:50.144Z</time></trkpt><trkpt lat="49.2895209" lon="5.7259977"><ele>259.6</ele><time>2026-03-22T08:21:51.143Z</time></trkpt><trkpt lat="49.2894166" lon="5.7260388"><ele>259.4</ele><time>2026-03-22T08:21:52.144Z</time></trkpt><trkpt lat="49.2893184" lon="5.7260785"><ele>259.2</ele><time>2026-03-22T08:21:53.144Z</time></trkpt><trkpt lat="49.2892247" lon="5.7261085"><ele>259.0</ele><time>2026-03-22T08:21:54.144Z</time></trkpt><trkpt lat="49.2891436" lon="5.7261308"><ele>259.0</ele><time>2026-03-22T08:21:55.143Z</time></trkpt><trkpt lat="49.2890739" lon="5.7261229"><ele>259.0</ele><time>2026-03-22T08:21:56.144Z</time></trkpt><trkpt lat="49.288997" lon="5.7259951"><ele>259.0</ele><time>2026-03-22T08:21:58.144Z</time></trkpt><trkpt lat="49.2889668" lon="5.7258158"><ele>259.0</ele><time>2026-03-22T08:22:00.144Z</time></trkpt><trkpt lat="49.288899" lon="5.7256836"><ele>259.0</ele><time>2026-03-22T08:22:02.143Z</time></trkpt><trkpt lat="49.2888537" lon="5.7256081"><ele>259.2</ele><time>2026-03-22T08:22:03.144Z</time></trkpt><trkpt lat="49.2888158" lon="5.7255008"><ele>259.4</ele><time>2026-03-22T08:22:04.144Z</time></trkpt><trkpt lat="49.2887811" lon="5.7253662"><ele>259.6</ele><time>2026-03-22T08:22:05.144Z</time></trkpt><trkpt lat="49.2887437" lon="5.7252161"><ele>259.8</ele><time>2026-03-22T08:22:06.143Z</time></trkpt><trkpt lat="49.2887024" lon="5.7250451"><ele>260.0</ele><time>2026-03-22T08:22:07.144Z</time></trkpt><trkpt lat="49.2886668" lon="5.7248858"><ele>260.0</ele><time>2026-03-22T08:22:08.143Z</time></trkpt><trkpt lat="49.2886331" lon="5.7247404"><ele>260.0</ele><time>2026-03-22T08:22:09.144Z</time></trkpt><trkpt lat="49.2886016" lon="5.724614"><ele>260.0</ele><time>2026-03-22T08:22:10.144Z</time></trkpt><trkpt lat="49.288566" lon="5.7245158"><ele>260.0</ele><time>2026-03-22T08:22:11.144Z</time></trkpt><trkpt lat="49.28848" lon="5.7244224"><ele>260.0</ele><time>2026-03-22T08:22:13.144Z</time></trkpt><trkpt lat="49.2883649" lon="5.7244187"><ele>260.0</ele><time>2026-03-22T08:22:15.143Z</time></trkpt><trkpt lat="49.2882961" lon="5.7244463"><ele>260.0</ele><time>2026-03-22T08:22:16.144Z</time></trkpt><trkpt lat="49.2882153" lon="5.7244888"><ele>260.0</ele><time>2026-03-22T08:22:17.144Z</time></trkpt><trkpt lat="49.2881295" lon="5.7245363"><ele>260.0</ele><time>2026-03-22T08:22:18.143Z</time></trkpt><trkpt lat="49.2880454" lon="5.7245738"><ele>260.0</ele><time>2026-03-22T08:22:19.143Z</time></trkpt><trkpt lat="49.2879648" lon="5.7246042"><ele>260.0</ele><time>2026-03-22T08:22:20.144Z</time></trkpt><trkpt lat="49.2878861" lon="5.7246311"><ele>260.28571428571433</ele><time>2026-03-22T08:22:21.144Z</time></trkpt><trkpt lat="49.2878207" lon="5.7246585"><ele>260.57142857142856</ele><time>2026-03-22T08:22:22.144Z</time></trkpt><trkpt lat="49.2877453" lon="5.7247011"><ele>260.8571428571429</ele><time>2026-03-22T08:22:24.144Z</time></trkpt><trkpt lat="49.287681" lon="5.7247248"><ele>261.14285714285717</ele><time>2026-03-22T08:22:27.143Z</time></trkpt><trkpt lat="49.2876116" lon="5.7247442"><ele>261.42857142857144</ele><time>2026-03-22T08:22:29.144Z</time></trkpt><trkpt lat="49.2875377" lon="5.7247653"><ele>261.7142857142857</ele><time>2026-03-22T08:22:31.144Z</time></trkpt><trkpt lat="49.2874542" lon="5.7247843"><ele>262.0</ele><time>2026-03-22T08:22:33.145Z</time></trkpt><trkpt lat="49.2873475" lon="5.7248043"><ele>261.16666666666663</ele><time>2026-03-22T08:22:35.143Z</time></trkpt><trkpt lat="49.2872192" lon="5.7248467"><ele>260.3333333333333</ele><time>2026-03-22T08:22:37.144Z</time></trkpt><trkpt lat="49.2871494" lon="5.7248883"><ele>259.5</ele><time>2026-03-22T08:22:38.144Z</time></trkpt><trkpt lat="49.2870868" lon="5.724947"><ele>258.6666666666667</ele><time>2026-03-22T08:22:39.145Z</time></trkpt><trkpt lat="49.2870372" lon="5.7250231"><ele>257.83333333333337</ele><time>2026-03-22T08:22:40.143Z</time></trkpt><trkpt lat="49.2869968" lon="5.7251062"><ele>257.0</ele><time>2026-03-22T08:22:41.144Z</time></trkpt><trkpt lat="49.286969" lon="5.7251952"><ele>257.1666666666667</ele><time>2026-03-22T08:22:42.143Z</time></trkpt><trkpt lat="49.2869496" lon="5.7252907"><ele>257.33333333333337</ele><time>2026-03-22T08:22:43.143Z</time></trkpt><trkpt lat="49.2869373" lon="5.7253957"><ele>257.5</ele><time>2026-03-22T08:22:44.144Z</time></trkpt><trkpt lat="49.2869315" lon="5.7255117"><ele>257.6666666666667</ele><time>2026-03-22T08:22:45.144Z</time></trkpt><trkpt lat="49.2869308" lon="5.7256327"><ele>257.8333333333333</ele><time>2026-03-22T08:22:46.143Z</time></trkpt><trkpt lat="49.2869332" lon="5.7257575"><ele>258.0</ele><time>2026-03-22T08:22:47.144Z</time></trkpt><trkpt lat="49.2869328" lon="5.7258794"><ele>258.0</ele><time>2026-03-22T08:22:48.144Z</time></trkpt><trkpt lat="49.2869381" lon="5.7260058"><ele>258.0</ele><time>2026-03-22T08:22:49.144Z</time></trkpt><trkpt lat="49.2869309" lon="5.7261352"><ele>258.0</ele><time>2026-03-22T08:22:50.144Z</time></trkpt><trkpt lat="49.286926" lon="5.7262667"><ele>258.0</ele><time>2026-03-22T08:22:51.144Z</time></trkpt><trkpt lat="49.2869256" lon="5.726399"><ele>258.0</ele><time>2026-03-22T08:22:52.143Z</time></trkpt><trkpt lat="49.2869206" lon="5.7265308"><ele>258.0</ele><time>2026-03-22T08:22:53.144Z</time></trkpt><trkpt lat="49.2869161" lon="5.7266642"><ele>258.2</ele><time>2026-03-22T08:22:54.143Z</time></trkpt><trkpt lat="49.2869189" lon="5.7268"><ele>258.4</ele><time>2026-03-22T08:22:55.144Z</time></trkpt><trkpt lat="49.2869199" lon="5.7269378"><ele>258.59999999999997</ele><time>2026-03-22T08:22:56.144Z</time></trkpt><trkpt lat="49.2869169" lon="5.7270803"><ele>258.8</ele><time>2026-03-22T08:22:57.144Z</time></trkpt><trkpt lat="49.286916" lon="5.727215"><ele>259.0</ele><time>2026-03-22T08:22:58.143Z</time></trkpt><trkpt lat="49.2869236" lon="5.7273561"><ele>259.0</ele><time>2026-03-22T08:22:59.144Z</time></trkpt><trkpt lat="49.2869218" lon="5.727515"><ele>259.0</ele><time>2026-03-22T08:23:00.144Z</time></trkpt><trkpt lat="49.2869186" lon="5.7276656"><ele>259.0</ele><time>2026-03-22T08:23:01.144Z</time></trkpt><trkpt lat="49.2869051" lon="5.7277757"><ele>259.0</ele><time>2026-03-22T08:23:02.145Z</time></trkpt><trkpt lat="49.2868953" lon="5.727963"><ele>259.0</ele><time>2026-03-22T08:23:04.144Z</time></trkpt><trkpt lat="49.2868931" lon="5.7281518"><ele>259.3333333333333</ele><time>2026-03-22T08:23:06.143Z</time></trkpt><trkpt lat="49.2868946" lon="5.7282644"><ele>259.66666666666663</ele><time>2026-03-22T08:23:07.143Z</time></trkpt><trkpt lat="49.2868897" lon="5.7283922"><ele>260.0</ele><time>2026-03-22T08:23:08.143Z</time></trkpt><trkpt lat="49.28689" lon="5.7285258"><ele>260.3333333333333</ele><time>2026-03-22T08:23:09.143Z</time></trkpt><trkpt lat="49.2868804" lon="5.7286619"><ele>260.6666666666667</ele><time>2026-03-22T08:23:10.144Z</time></trkpt><trkpt lat="49.2868681" lon="5.7288097"><ele>261.0</ele><time>2026-03-22T08:23:11.143Z</time></trkpt><trkpt lat="49.2868535" lon="5.728964"><ele>261.2</ele><time>2026-03-22T08:23:12.144Z</time></trkpt><trkpt lat="49.2868124" lon="5.7291085"><ele>261.40000000000003</ele><time>2026-03-22T08:23:13.144Z</time></trkpt><trkpt lat="49.2867635" lon="5.7292404"><ele>261.6</ele><time>2026-03-22T08:23:14.144Z</time></trkpt><trkpt lat="49.2867095" lon="5.7293668"><ele>261.8</ele><time>2026-03-22T08:23:15.144Z</time></trkpt><trkpt lat="49.286649" lon="5.7294882"><ele>262.0</ele><time>2026-03-22T08:23:16.145Z</time></trkpt><trkpt lat="49.2865886" lon="5.7296168"><ele>262.5</ele><time>2026-03-22T08:23:17.145Z</time></trkpt><trkpt lat="49.286543" lon="5.7297523"><ele>263.0</ele><time>2026-03-22T08:23:18.144Z</time></trkpt><trkpt lat="49.2865026" lon="5.7298658"><ele>263.5</ele><time>2026-03-22T08:23:19.144Z</time></trkpt><trkpt lat="49.286478" lon="5.7299642"><ele>264.0</ele><time>2026-03-22T08:23:20.144Z</time></trkpt><trkpt lat="49.2864671" lon="5.7300603"><ele>264.5</ele><time>2026-03-22T08:23:21.143Z</time></trkpt><trkpt lat="49.286454" lon="5.7301694"><ele>265.0</ele><time>2026-03-22T08:23:22.144Z</time></trkpt><trkpt lat="49.2864411" lon="5.7302913"><ele>265.16666666666663</ele><time>2026-03-22T08:23:23.144Z</time></trkpt><trkpt lat="49.2864332" lon="5.7304261"><ele>265.3333333333333</ele><time>2026-03-22T08:23:24.143Z</time></trkpt><trkpt lat="49.2864238" lon="5.7305598"><ele>265.5</ele><time>2026-03-22T08:23:25.143Z</time></trkpt><trkpt lat="49.2864147" lon="5.7306961"><ele>265.6666666666667</ele><time>2026-03-22T08:23:26.144Z</time></trkpt><trkpt lat="49.2864125" lon="5.730834"><ele>265.83333333333337</ele><time>2026-03-22T08:23:27.145Z</time></trkpt><trkpt lat="49.2864178" lon="5.7309598"><ele>266.0</ele><time>2026-03-22T08:23:28.143Z</time></trkpt><trkpt lat="49.2864167" lon="5.7310794"><ele>266.0</ele><time>2026-03-22T08:23:29.145Z</time></trkpt><trkpt lat="49.286399" lon="5.7311857"><ele>266.0</ele><time>2026-03-22T08:23:30.144Z</time></trkpt><trkpt lat="49.2863519" lon="5.7312777"><ele>266.0</ele><time>2026-03-22T08:23:31.144Z</time></trkpt><trkpt lat="49.2862807" lon="5.7313319"><ele>266.0</ele><time>2026-03-22T08:23:32.145Z</time></trkpt><trkpt lat="49.286195" lon="5.7313512"><ele>266.0</ele><time>2026-03-22T08:23:33.145Z</time></trkpt><trkpt lat="49.2861005" lon="5.7313528"><ele>266.0</ele><time>2026-03-22T08:23:34.145Z</time></trkpt><trkpt lat="49.2860038" lon="5.7313524"><ele>266.0</ele><time>2026-03-22T08:23:35.144Z</time></trkpt><trkpt lat="49.2859105" lon="5.7313553"><ele>266.0</ele><time>2026-03-22T08:23:36.143Z</time></trkpt><trkpt lat="49.2858303" lon="5.73135"><ele>266.0</ele><time>2026-03-22T08:23:37.144Z</time></trkpt><trkpt lat="49.2857629" lon="5.7313397"><ele>266.0</ele><time>2026-03-22T08:23:38.144Z</time></trkpt><trkpt lat="49.2856696" lon="5.7313585"><ele>266.0</ele><time>2026-03-22T08:23:40.144Z</time></trkpt><trkpt lat="49.285592" lon="5.7314051"><ele>266.0</ele><time>2026-03-22T08:23:42.144Z</time></trkpt><trkpt lat="49.2854925" lon="5.7314947"><ele>265.83333333333337</ele><time>2026-03-22T08:23:44.144Z</time></trkpt><trkpt lat="49.2854355" lon="5.7315517"><ele>265.6666666666667</ele><time>2026-03-22T08:23:45.144Z</time></trkpt><trkpt lat="49.2853892" lon="5.7316325"><ele>265.5</ele><time>2026-03-22T08:23:46.144Z</time></trkpt><trkpt lat="49.285365" lon="5.7317401"><ele>265.3333333333333</ele><time>2026-03-22T08:23:47.143Z</time></trkpt><trkpt lat="49.2853574" lon="5.7318643"><ele>265.16666666666663</ele><time>2026-03-22T08:23:48.143Z</time></trkpt><trkpt lat="49.285364" lon="5.7320048"><ele>265.0</ele><time>2026-03-22T08:23:49.144Z</time></trkpt><trkpt lat="49.285377" lon="5.7321472"><ele>265.0</ele><time>2026-03-22T08:23:50.144Z</time></trkpt><trkpt lat="49.2853975" lon="5.7322861"><ele>265.0</ele><time>2026-03-22T08:23:51.144Z</time></trkpt><trkpt lat="49.2854211" lon="5.7324185"><ele>265.0</ele><time>2026-03-22T08:23:52.144Z</time></trkpt><trkpt lat="49.2854382" lon="5.7325501"><ele>265.0</ele><time>2026-03-22T08:23:53.144Z</time></trkpt><trkpt lat="49.2854471" lon="5.7326622"><ele>265.0</ele><time>2026-03-22T08:23:54.143Z</time></trkpt><trkpt lat="49.2854695" lon="5.7327597"><ele>265.0</ele><time>2026-03-22T08:23:55.143Z</time></trkpt><trkpt lat="49.2854842" lon="5.7328635"><ele>265.3333333333333</ele><time>2026-03-22T08:23:56.144Z</time></trkpt><trkpt lat="49.2854932" lon="5.7329695"><ele>265.66666666666663</ele><time>2026-03-22T08:23:57.144Z</time></trkpt><trkpt lat="49.2854839" lon="5.7330816"><ele>266.0</ele><time>2026-03-22T08:23:58.143Z</time></trkpt><trkpt lat="49.2854606" lon="5.7331957"><ele>266.3333333333333</ele><time>2026-03-22T08:23:59.144Z</time></trkpt><trkpt lat="49.2854321" lon="5.7333096"><ele>266.6666666666667</ele><time>2026-03-22T08:24:00.143Z</time></trkpt><trkpt lat="49.2853948" lon="5.7334243"><ele>267.0</ele><time>2026-03-22T08:24:01.143Z</time></trkpt><trkpt lat="49.2853502" lon="5.7335462"><ele>267.2</ele><time>2026-03-22T08:24:02.143Z</time></trkpt><trkpt lat="49.2853115" lon="5.7336732"><ele>267.4</ele><time>2026-03-22T08:24:03.144Z</time></trkpt><trkpt lat="49.2852763" lon="5.7337951"><ele>267.6</ele><time>2026-03-22T08:24:04.144Z</time></trkpt><trkpt lat="49.2852451" lon="5.7338952"><ele>267.8</ele><time>2026-03-22T08:24:05.144Z</time></trkpt><trkpt lat="49.2852159" lon="5.7340612"><ele>268.0</ele><time>2026-03-22T08:24:07.143Z</time></trkpt><trkpt lat="49.2852057" lon="5.7342524"><ele>268.0</ele><time>2026-03-22T08:24:09.144Z</time></trkpt><trkpt lat="49.2852009" lon="5.7343652"><ele>268.0</ele><time>2026-03-22T08:24:10.144Z</time></trkpt><trkpt lat="49.2852043" lon="5.7344912"><ele>268.0</ele><time>2026-03-22T08:24:11.144Z</time></trkpt><trkpt lat="49.2852158" lon="5.7346221"><ele>268.0</ele><time>2026-03-22T08:24:12.144Z</time></trkpt><trkpt lat="49.2852318" lon="5.7347482"><ele>268.0</ele><time>2026-03-22T08:24:13.144Z</time></trkpt><trkpt lat="49.285256" lon="5.7348624"><ele>268.0</ele><time>2026-03-22T08:24:14.143Z</time></trkpt><trkpt lat="49.2852734" lon="5.7349635"><ele>267.6</ele><time>2026-03-22T08:24:15.144Z</time></trkpt><trkpt lat="49.2852992" lon="5.7351283"><ele>267.20000000000005</ele><time>2026-03-22T08:24:17.144Z</time></trkpt><trkpt lat="49.2853245" lon="5.7352627"><ele>266.8</ele><time>2026-03-22T08:24:19.145Z</time></trkpt><trkpt lat="49.2853591" lon="5.7354069"><ele>266.40000000000003</ele><time>2026-03-22T08:24:21.144Z</time></trkpt><trkpt lat="49.2854044" lon="5.7355713"><ele>266.0</ele><time>2026-03-22T08:24:23.144Z</time></trkpt><trkpt lat="49.2854347" lon="5.7356671"><ele>266.1666666666667</ele><time>2026-03-22T08:24:24.144Z</time></trkpt><trkpt lat="49.2854652" lon="5.7357728"><ele>266.33333333333337</ele><time>2026-03-22T08:24:25.143Z</time></trkpt><trkpt lat="49.2854974" lon="5.7358785"><ele>266.5</ele><time>2026-03-22T08:24:26.143Z</time></trkpt><trkpt lat="49.2855599" lon="5.7360324"><ele>266.6666666666667</ele><time>2026-03-22T08:24:28.144Z</time></trkpt><trkpt lat="49.2855807" lon="5.7361236"><ele>266.8333333333333</ele><time>2026-03-22T08:24:29.143Z</time></trkpt><trkpt lat="49.2856027" lon="5.7362173"><ele>267.0</ele><time>2026-03-22T08:24:30.143Z</time></trkpt><trkpt lat="49.2856294" lon="5.7363258"><ele>267.0</ele><time>2026-03-22T08:24:31.143Z</time></trkpt><trkpt lat="49.2856488" lon="5.7364263"><ele>267.0</ele><time>2026-03-22T08:24:32.145Z</time></trkpt><trkpt lat="49.2856567" lon="5.736531"><ele>267.0</ele><time>2026-03-22T08:24:33.144Z</time></trkpt><trkpt lat="49.2856388" lon="5.7366282"><ele>267.0</ele><time>2026-03-22T08:24:34.144Z</time></trkpt><trkpt lat="49.2855948" lon="5.7367151"><ele>267.0</ele><time>2026-03-22T08:24:35.144Z</time></trkpt><trkpt lat="49.2855316" lon="5.7368069"><ele>267.0</ele><time>2026-03-22T08:24:36.144Z</time></trkpt><trkpt lat="49.2854565" lon="5.7369051"><ele>265.6666666666667</ele><time>2026-03-22T08:24:37.144Z</time></trkpt><trkpt lat="49.2853905" lon="5.7369987"><ele>264.3333333333333</ele><time>2026-03-22T08:24:38.143Z</time></trkpt><trkpt lat="49.2853321" lon="5.7371007"><ele>263.0</ele><time>2026-03-22T08:24:39.144Z</time></trkpt><trkpt lat="49.2852842" lon="5.7371971"><ele>261.66666666666663</ele><time>2026-03-22T08:24:40.143Z</time></trkpt><trkpt lat="49.2852484" lon="5.7372999"><ele>260.3333333333333</ele><time>2026-03-22T08:24:41.144Z</time></trkpt><trkpt lat="49.2852191" lon="5.7374035"><ele>259.0</ele><time>2026-03-22T08:24:42.143Z</time></trkpt><trkpt lat="49.2851945" lon="5.7374987"><ele>259.0</ele><time>2026-03-22T08:24:43.144Z</time></trkpt><trkpt lat="49.2851725" lon="5.7375932"><ele>259.0</ele><time>2026-03-22T08:24:44.144Z</time></trkpt><trkpt lat="49.285146" lon="5.7377487"><ele>259.0</ele><time>2026-03-22T08:24:46.143Z</time></trkpt><trkpt lat="49.2851412" lon="5.7378471"><ele>259.0</ele><time>2026-03-22T08:24:47.144Z</time></trkpt><trkpt lat="49.2851835" lon="5.7380023"><ele>259.0</ele><time>2026-03-22T08:24:49.144Z</time></trkpt><trkpt lat="49.2853014" lon="5.7380616"><ele>259.0</ele><time>2026-03-22T08:24:51.144Z</time></trkpt><trkpt lat="49.2853867" lon="5.738079"><ele>259.0</ele><time>2026-03-22T08:24:52.144Z</time></trkpt><trkpt lat="49.2854875" lon="5.7380956"><ele>259.0</ele><time>2026-03-22T08:24:53.144Z</time></trkpt><trkpt lat="49.2855955" lon="5.7381138"><ele>259.0</ele><time>2026-03-22T08:24:54.144Z</time></trkpt><trkpt lat="49.2857076" lon="5.7381327"><ele>259.0</ele><time>2026-03-22T08:24:55.144Z</time></trkpt><trkpt lat="49.2858214" lon="5.7381551"><ele>259.5</ele><time>2026-03-22T08:24:56.144Z</time></trkpt><trkpt lat="49.285938" lon="5.7381833"><ele>260.0</ele><time>2026-03-22T08:24:57.144Z</time></trkpt><trkpt lat="49.2860555" lon="5.7382144"><ele>260.5</ele><time>2026-03-22T08:24:58.143Z</time></trkpt><trkpt lat="49.2861815" lon="5.738243"><ele>261.0</ele><time>2026-03-22T08:24:59.143Z</time></trkpt><trkpt lat="49.2863017" lon="5.7382684"><ele>261.0</ele><time>2026-03-22T08:25:00.145Z</time></trkpt><trkpt lat="49.2864126" lon="5.7382915"><ele>261.0</ele><time>2026-03-22T08:25:01.143Z</time></trkpt><trkpt lat="49.2865211" lon="5.7383154"><ele>261.0</ele><time>2026-03-22T08:25:02.144Z</time></trkpt><trkpt lat="49.2866145" lon="5.7383471"><ele>261.0</ele><time>2026-03-22T08:25:03.145Z</time></trkpt><trkpt lat="49.2866878" lon="5.7383764"><ele>261.0</ele><time>2026-03-22T08:25:04.145Z</time></trkpt><trkpt lat="49.2867537" lon="5.7383933"><ele>261.3333333333333</ele><time>2026-03-22T08:25:05.144Z</time></trkpt><trkpt lat="49.2868266" lon="5.7384055"><ele>261.6666666666667</ele><time>2026-03-22T08:25:06.145Z</time></trkpt><trkpt lat="49.2869023" lon="5.738419"><ele>262.0</ele><time>2026-03-22T08:25:07.144Z</time></trkpt><trkpt lat="49.286978" lon="5.7384334"><ele>262.33333333333337</ele><time>2026-03-22T08:25:08.143Z</time></trkpt><trkpt lat="49.2870606" lon="5.738439"><ele>262.6666666666667</ele><time>2026-03-22T08:25:09.144Z</time></trkpt><trkpt lat="49.2871464" lon="5.7384565"><ele>263.0</ele><time>2026-03-22T08:25:10.144Z</time></trkpt><trkpt lat="49.2872379" lon="5.7384781"><ele>263.6</ele><time>2026-03-22T08:25:11.144Z</time></trkpt><trkpt lat="49.2873291" lon="5.7385002"><ele>264.20000000000005</ele><time>2026-03-22T08:25:12.145Z</time></trkpt><trkpt lat="49.2874238" lon="5.7385246"><ele>264.8</ele><time>2026-03-22T08:25:13.144Z</time></trkpt><trkpt lat="49.2875217" lon="5.7385479"><ele>265.40000000000003</ele><time>2026-03-22T08:25:14.144Z</time></trkpt><trkpt lat="49.2876226" lon="5.7385721"><ele>266.0</ele><time>2026-03-22T08:25:15.144Z</time></trkpt><trkpt lat="49.2877285" lon="5.7385964"><ele>266.0</ele><time>2026-03-22T08:25:16.144Z</time></trkpt><trkpt lat="49.2878301" lon="5.7386138"><ele>266.0</ele><time>2026-03-22T08:25:17.144Z</time></trkpt><trkpt lat="49.2879375" lon="5.7386344"><ele>266.0</ele><time>2026-03-22T08:25:18.144Z</time></trkpt><trkpt lat="49.2880442" lon="5.7386558"><ele>266.0</ele><time>2026-03-22T08:25:19.143Z</time></trkpt><trkpt lat="49.2881455" lon="5.7386787"><ele>266.0</ele><time>2026-03-22T08:25:20.143Z</time></trkpt><trkpt lat="49.2882441" lon="5.7387048"><ele>266.1666666666667</ele><time>2026-03-22T08:25:21.144Z</time></trkpt><trkpt lat="49.2883338" lon="5.7387393"><ele>266.33333333333337</ele><time>2026-03-22T08:25:22.144Z</time></trkpt><trkpt lat="49.2884078" lon="5.7387978"><ele>266.5</ele><time>2026-03-22T08:25:23.144Z</time></trkpt><trkpt lat="49.288461" lon="5.738895"><ele>266.6666666666667</ele><time>2026-03-22T08:25:24.144Z</time></trkpt><trkpt lat="49.2885016" lon="5.7390081"><ele>266.8333333333333</ele><time>2026-03-22T08:25:25.144Z</time></trkpt><trkpt lat="49.2885435" lon="5.7391085"><ele>267.0</ele><time>2026-03-22T08:25:26.143Z</time></trkpt><trkpt lat="49.2885929" lon="5.7391934"><ele>267.00000000000006</ele><time>2026-03-22T08:25:27.143Z</time></trkpt><trkpt lat="49.2886514" lon="5.7392374"><ele>267.0</ele><time>2026-03-22T08:25:28.144Z</time></trkpt><trkpt lat="49.2887177" lon="5.7392546"><ele>267.0</ele><time>2026-03-22T08:25:29.143Z</time></trkpt><trkpt lat="49.2887924" lon="5.7392615"><ele>267.0</ele><time>2026-03-22T08:25:30.144Z</time></trkpt><trkpt lat="49.288872" lon="5.7392575"><ele>267.0</ele><time>2026-03-22T08:25:31.144Z</time></trkpt><trkpt lat="49.2889444" lon="5.7392508"><ele>267.00000000000006</ele><time>2026-03-22T08:25:32.144Z</time></trkpt><trkpt lat="49.2890094" lon="5.7392392"><ele>267.0</ele><time>2026-03-22T08:25:33.144Z</time></trkpt><trkpt lat="49.2891065" lon="5.7391367"><ele>267.4</ele><time>2026-03-22T08:25:35.144Z</time></trkpt><trkpt lat="49.2891963" lon="5.7390241"><ele>267.79999999999995</ele><time>2026-03-22T08:25:37.144Z</time></trkpt><trkpt lat="49.2893273" lon="5.7389973"><ele>268.2</ele><time>2026-03-22T08:25:39.144Z</time></trkpt><trkpt lat="49.2894043" lon="5.7390298"><ele>268.59999999999997</ele><time>2026-03-22T08:25:40.144Z</time></trkpt><trkpt lat="49.2894755" lon="5.73908"><ele>269.0</ele><time>2026-03-22T08:25:41.144Z</time></trkpt><trkpt lat="49.2895268" lon="5.7391743"><ele>269.0</ele><time>2026-03-22T08:25:42.143Z</time></trkpt><trkpt lat="49.289564" lon="5.7392911"><ele>269.0</ele><time>2026-03-22T08:25:43.144Z</time></trkpt><trkpt lat="49.2895975" lon="5.7394178"><ele>269.0</ele><time>2026-03-22T08:25:44.143Z</time></trkpt><trkpt lat="49.2896282" lon="5.7395437"><ele>269.0</ele><time>2026-03-22T08:25:45.145Z</time></trkpt><trkpt lat="49.2896628" lon="5.7396783"><ele>269.0</ele><time>2026-03-22T08:25:46.144Z</time></trkpt><trkpt lat="49.2897009" lon="5.739815"><ele>268.2</ele><time>2026-03-22T08:25:47.144Z</time></trkpt><trkpt lat="49.2897384" lon="5.7399527"><ele>267.4</ele><time>2026-03-22T08:25:48.144Z</time></trkpt><trkpt lat="49.2897778" lon="5.7400896"><ele>266.6</ele><time>2026-03-22T08:25:49.144Z</time></trkpt><trkpt lat="49.2898133" lon="5.7402247"><ele>265.8</ele><time>2026-03-22T08:25:50.144Z</time></trkpt><trkpt lat="49.2898452" lon="5.7403596"><ele>265.0</ele><time>2026-03-22T08:25:51.143Z</time></trkpt><trkpt lat="49.2898747" lon="5.7404913"><ele>264.16666666666663</ele><time>2026-03-22T08:25:52.144Z</time></trkpt><trkpt lat="49.2899027" lon="5.7406212"><ele>263.3333333333333</ele><time>2026-03-22T08:25:53.143Z</time></trkpt><trkpt lat="49.28993" lon="5.7407464"><ele>262.5</ele><time>2026-03-22T08:25:54.143Z</time></trkpt><trkpt lat="49.2899563" lon="5.7408794"><ele>261.6666666666667</ele><time>2026-03-22T08:25:55.143Z</time></trkpt><trkpt lat="49.2899784" lon="5.7410113"><ele>260.83333333333337</ele><time>2026-03-22T08:25:56.145Z</time></trkpt><trkpt lat="49.2900001" lon="5.741149"><ele>260.0</ele><time>2026-03-22T08:25:57.143Z</time></trkpt><trkpt lat="49.2900187" lon="5.7412849"><ele>259.83333333333337</ele><time>2026-03-22T08:25:58.143Z</time></trkpt><trkpt lat="49.2900364" lon="5.7414231"><ele>259.6666666666667</ele><time>2026-03-22T08:25:59.144Z</time></trkpt><trkpt lat="49.2900572" lon="5.7415606"><ele>259.5</ele><time>2026-03-22T08:26:00.144Z</time></trkpt><trkpt lat="49.2900789" lon="5.7416924"><ele>259.3333333333333</ele><time>2026-03-22T08:26:01.143Z</time></trkpt><trkpt lat="49.2900979" lon="5.741819"><ele>259.16666666666663</ele><time>2026-03-22T08:26:02.144Z</time></trkpt><trkpt lat="49.2901125" lon="5.7419512"><ele>259.0</ele><time>2026-03-22T08:26:03.144Z</time></trkpt><trkpt lat="49.2901283" lon="5.7420871"><ele>259.0</ele><time>2026-03-22T08:26:04.144Z</time></trkpt><trkpt lat="49.2901479" lon="5.7422395"><ele>259.0</ele><time>2026-03-22T08:26:05.143Z</time></trkpt><trkpt lat="49.2901693" lon="5.7423998"><ele>259.0</ele><time>2026-03-22T08:26:06.144Z</time></trkpt><trkpt lat="49.2901944" lon="5.7425592"><ele>259.0</ele><time>2026-03-22T08:26:07.144Z</time></trkpt><trkpt lat="49.2902179" lon="5.7427103"><ele>259.0</ele><time>2026-03-22T08:26:08.143Z</time></trkpt><trkpt lat="49.2902427" lon="5.7428527"><ele>259.0</ele><time>2026-03-22T08:26:09.144Z</time></trkpt><trkpt lat="49.2902676" lon="5.7429783"><ele>259.0</ele><time>2026-03-22T08:26:10.144Z</time></trkpt><trkpt lat="49.2902957" lon="5.7430892"><ele>259.0</ele><time>2026-03-22T08:26:11.143Z</time></trkpt><trkpt lat="49.2903391" lon="5.7431744"><ele>259.0</ele><time>2026-03-22T08:26:12.144Z</time></trkpt><trkpt lat="49.2903951" lon="5.7432321"><ele>259.0</ele><time>2026-03-22T08:26:13.143Z</time></trkpt><trkpt lat="49.2904708" lon="5.7432754"><ele>259.0</ele><time>2026-03-22T08:26:14.144Z</time></trkpt><trkpt lat="49.2905549" lon="5.7433093"><ele>259.8333333333333</ele><time>2026-03-22T08:26:15.144Z</time></trkpt><trkpt lat="49.2906425" lon="5.743341"><ele>260.66666666666663</ele><time>2026-03-22T08:26:16.144Z</time></trkpt><trkpt lat="49.2907272" lon="5.7433565"><ele>261.5</ele><time>2026-03-22T08:26:17.144Z</time></trkpt><trkpt lat="49.2908051" lon="5.7433458"><ele>262.3333333333333</ele><time>2026-03-22T08:26:18.144Z</time></trkpt><trkpt lat="49.2908719" lon="5.7433366"><ele>263.1666666666667</ele><time>2026-03-22T08:26:19.144Z</time></trkpt><trkpt lat="49.2909828" lon="5.7433628"><ele>264.0</ele><time>2026-03-22T08:26:21.143Z</time></trkpt><trkpt lat="49.2910905" lon="5.7433554"><ele>264.0</ele><time>2026-03-22T08:26:23.144Z</time></trkpt><trkpt lat="49.2911543" lon="5.7433287"><ele>264.0</ele><time>2026-03-22T08:26:24.144Z</time></trkpt><trkpt lat="49.2912353" lon="5.7432856"><ele>264.0</ele><time>2026-03-22T08:26:26.145Z</time></trkpt><trkpt lat="49.2913014" lon="5.7432203"><ele>264.0</ele><time>2026-03-22T08:26:28.144Z</time></trkpt><trkpt lat="49.291361" lon="5.7431021"><ele>264.0</ele><time>2026-03-22T08:26:30.144Z</time></trkpt><trkpt lat="49.2914364" lon="5.7430204"><ele>264.0</ele><time>2026-03-22T08:26:32.144Z</time></trkpt><trkpt lat="49.2915285" lon="5.7430581"><ele>264.0</ele><time>2026-03-22T08:26:34.143Z</time></trkpt><trkpt lat="49.2916127" lon="5.7431594"><ele>264.0</ele><time>2026-03-22T08:26:36.145Z</time></trkpt><trkpt lat="49.2916971" lon="5.7432732"><ele>264.0</ele><time>2026-03-22T08:26:38.144Z</time></trkpt><trkpt lat="49.2917691" lon="5.7434016"><ele>264.0</ele><time>2026-03-22T08:26:40.143Z</time></trkpt><trkpt lat="49.2918324" lon="5.7434828"><ele>264.0</ele><time>2026-03-22T08:26:42.144Z</time></trkpt><trkpt lat="49.2919322" lon="5.7434717"><ele>264.0</ele><time>2026-03-22T08:26:46.143Z</time></trkpt><trkpt lat="49.2920402" lon="5.7433416"><ele>264.0</ele><time>2026-03-22T08:26:48.144Z</time></trkpt><trkpt lat="49.2921131" lon="5.7432377"><ele>264.0</ele><time>2026-03-22T08:26:49.144Z</time></trkpt><trkpt lat="49.2921899" lon="5.7431192"><ele>264.0</ele><time>2026-03-22T08:26:50.144Z</time></trkpt><trkpt lat="49.2922717" lon="5.7429861"><ele>263.75</ele><time>2026-03-22T08:26:51.143Z</time></trkpt><trkpt lat="49.2923612" lon="5.7428346"><ele>263.5</ele><time>2026-03-22T08:26:52.144Z</time></trkpt><trkpt lat="49.2924514" lon="5.7426843"><ele>263.25</ele><time>2026-03-22T08:26:53.143Z</time></trkpt><trkpt lat="49.2925326" lon="5.7425363"><ele>263.0</ele><time>2026-03-22T08:26:54.144Z</time></trkpt><trkpt lat="49.2926145" lon="5.7423929"><ele>263.0</ele><time>2026-03-22T08:26:55.144Z</time></trkpt><trkpt lat="49.2926925" lon="5.7422572"><ele>263.0</ele><time>2026-03-22T08:26:56.145Z</time></trkpt><trkpt lat="49.2927687" lon="5.7421291"><ele>263.0</ele><time>2026-03-22T08:26:57.143Z</time></trkpt><trkpt lat="49.2928449" lon="5.7420149"><ele>263.0</ele><time>2026-03-22T08:26:58.145Z</time></trkpt><trkpt lat="49.292919" lon="5.7419255"><ele>263.0</ele><time>2026-03-22T08:26:59.143Z</time></trkpt><trkpt lat="49.2929954" lon="5.741866"><ele>262.85714285714283</ele><time>2026-03-22T08:27:00.144Z</time></trkpt><trkpt lat="49.2930735" lon="5.7418384"><ele>262.71428571428567</ele><time>2026-03-22T08:27:01.144Z</time></trkpt><trkpt lat="49.293149" lon="5.7418385"><ele>262.57142857142856</ele><time>2026-03-22T08:27:02.144Z</time></trkpt><trkpt lat="49.2932276" lon="5.7418389"><ele>262.42857142857144</ele><time>2026-03-22T08:27:03.144Z</time></trkpt><trkpt lat="49.2932958" lon="5.7418193"><ele>262.28571428571433</ele><time>2026-03-22T08:27:04.145Z</time></trkpt><trkpt lat="49.2933545" lon="5.7417715"><ele>262.14285714285717</ele><time>2026-03-22T08:27:05.144Z</time></trkpt><trkpt lat="49.2934114" lon="5.7416945"><ele>262.0</ele><time>2026-03-22T08:27:06.144Z</time></trkpt><trkpt lat="49.293464" lon="5.741599"><ele>262.66666666666663</ele><time>2026-03-22T08:27:07.144Z</time></trkpt><trkpt lat="49.2935116" lon="5.7414983"><ele>263.3333333333333</ele><time>2026-03-22T08:27:08.144Z</time></trkpt><trkpt lat="49.2935571" lon="5.7413873"><ele>264.0</ele><time>2026-03-22T08:27:09.143Z</time></trkpt><trkpt lat="49.2935973" lon="5.7412731"><ele>264.6666666666667</ele><time>2026-03-22T08:27:10.144Z</time></trkpt><trkpt lat="49.2936384" lon="5.7411682"><ele>265.33333333333337</ele><time>2026-03-22T08:27:11.143Z</time></trkpt><trkpt lat="49.293682" lon="5.7410693"><ele>266.0</ele><time>2026-03-22T08:27:12.144Z</time></trkpt><trkpt lat="49.2937235" lon="5.7409764"><ele>266.33333333333337</ele><time>2026-03-22T08:27:13.144Z</time></trkpt><trkpt lat="49.2937704" lon="5.7408976"><ele>266.6666666666667</ele><time>2026-03-22T08:27:14.143Z</time></trkpt><trkpt lat="49.2938831" lon="5.7408421"><ele>267.0</ele><time>2026-03-22T08:27:16.143Z</time></trkpt><trkpt lat="49.2939546" lon="5.7408529"><ele>267.3333333333333</ele><time>2026-03-22T08:27:17.144Z</time></trkpt><trkpt lat="49.2940289" lon="5.7408866"><ele>267.66666666666663</ele><time>2026-03-22T08:27:18.143Z</time></trkpt><trkpt lat="49.2941148" lon="5.7409302"><ele>268.0</ele><time>2026-03-22T08:27:19.144Z</time></trkpt><trkpt lat="49.2942116" lon="5.7409844"><ele>268.0</ele><time>2026-03-22T08:27:20.144Z</time></trkpt><trkpt lat="49.2943225" lon="5.7410406"><ele>268.0</ele><time>2026-03-22T08:27:21.144Z</time></trkpt><trkpt lat="49.2944434" lon="5.7410965"><ele>268.0</ele><time>2026-03-22T08:27:22.144Z</time></trkpt><trkpt lat="49.2945534" lon="5.7411711"><ele>268.0</ele><time>2026-03-22T08:27:23.144Z</time></trkpt><trkpt lat="49.2946493" lon="5.741275"><ele>268.0</ele><time>2026-03-22T08:27:24.144Z</time></trkpt><trkpt lat="49.2947299" lon="5.7413996"><ele>268.0</ele><time>2026-03-22T08:27:25.143Z</time></trkpt><trkpt lat="49.2948024" lon="5.7415352"><ele>268.0</ele><time>2026-03-22T08:27:26.145Z</time></trkpt><trkpt lat="49.2948704" lon="5.7416818"><ele>268.0</ele><time>2026-03-22T08:27:27.144Z</time></trkpt><trkpt lat="49.2949368" lon="5.7418319"><ele>267.5</ele><time>2026-03-22T08:27:28.144Z</time></trkpt><trkpt lat="49.2950098" lon="5.7419694"><ele>267.0</ele><time>2026-03-22T08:27:29.143Z</time></trkpt><trkpt lat="49.2950819" lon="5.7421022"><ele>266.5</ele><time>2026-03-22T08:27:30.143Z</time></trkpt><trkpt lat="49.2951556" lon="5.7422293"><ele>266.0</ele><time>2026-03-22T08:27:31.144Z</time></trkpt><trkpt lat="49.2952213" lon="5.7423672"><ele>266.0</ele><time>2026-03-22T08:27:32.143Z</time></trkpt><trkpt lat="49.2952815" lon="5.7425133"><ele>266.0</ele><time>2026-03-22T08:27:33.144Z</time></trkpt><trkpt lat="49.2953424" lon="5.7426516"><ele>266.0</ele><time>2026-03-22T08:27:34.143Z</time></trkpt><trkpt lat="49.2953965" lon="5.7427929"><ele>266.0</ele><time>2026-03-22T08:27:35.144Z</time></trkpt><trkpt lat="49.2954454" lon="5.742937"><ele>266.0</ele><time>2026-03-22T08:27:36.144Z</time></trkpt><trkpt lat="49.2954962" lon="5.7430824"><ele>265.8</ele><time>2026-03-22T08:27:37.144Z</time></trkpt><trkpt lat="49.2955422" lon="5.7432252"><ele>265.6</ele><time>2026-03-22T08:27:38.143Z</time></trkpt><trkpt lat="49.2955918" lon="5.7433702"><ele>265.4</ele><time>2026-03-22T08:27:39.144Z</time></trkpt><trkpt lat="49.295642" lon="5.7435153"><ele>265.2</ele><time>2026-03-22T08:27:40.144Z</time></trkpt><trkpt lat="49.2956886" lon="5.7436552"><ele>265.0</ele><time>2026-03-22T08:27:41.144Z</time></trkpt><trkpt lat="49.2957391" lon="5.7437891"><ele>265.6</ele><time>2026-03-22T08:27:42.144Z</time></trkpt><trkpt lat="49.2957945" lon="5.7439074"><ele>266.2</ele><time>2026-03-22T08:27:43.144Z</time></trkpt><trkpt lat="49.2958562" lon="5.7440285"><ele>266.8</ele><time>2026-03-22T08:27:44.145Z</time></trkpt><trkpt lat="49.2959075" lon="5.7441541"><ele>267.4</ele><time>2026-03-22T08:27:45.144Z</time></trkpt><trkpt lat="49.2959543" lon="5.7442879"><ele>268.0</ele><time>2026-03-22T08:27:46.143Z</time></trkpt><trkpt lat="49.2959923" lon="5.7444254"><ele>268.0</ele><time>2026-03-22T08:27:47.145Z</time></trkpt><trkpt lat="49.2960167" lon="5.7445711"><ele>268.0</ele><time>2026-03-22T08:27:48.144Z</time></trkpt><trkpt lat="49.2960362" lon="5.7447193"><ele>268.0</ele><time>2026-03-22T08:27:49.145Z</time></trkpt><trkpt lat="49.2960546" lon="5.7448726"><ele>268.0</ele><time>2026-03-22T08:27:50.143Z</time></trkpt><trkpt lat="49.2960756" lon="5.7450254"><ele>268.0</ele><time>2026-03-22T08:27:51.143Z</time></trkpt><trkpt lat="49.2960967" lon="5.7451801"><ele>267.8</ele><time>2026-03-22T08:27:52.144Z</time></trkpt><trkpt lat="49.2961148" lon="5.7453289"><ele>267.6</ele><time>2026-03-22T08:27:53.144Z</time></trkpt><trkpt lat="49.2961277" lon="5.7454874"><ele>267.4</ele><time>2026-03-22T08:27:54.144Z</time></trkpt><trkpt lat="49.2961337" lon="5.7456477"><ele>267.2</ele><time>2026-03-22T08:27:55.144Z</time></trkpt><trkpt lat="49.2961458" lon="5.7458129"><ele>267.0</ele><time>2026-03-22T08:27:56.144Z</time></trkpt><trkpt lat="49.2961554" lon="5.7459782"><ele>266.8</ele><time>2026-03-22T08:27:57.143Z</time></trkpt><trkpt lat="49.2961586" lon="5.7461429"><ele>266.6</ele><time>2026-03-22T08:27:58.144Z</time></trkpt><trkpt lat="49.2961582" lon="5.7463066"><ele>266.40000000000003</ele><time>2026-03-22T08:27:59.144Z</time></trkpt><trkpt lat="49.2961595" lon="5.746468"><ele>266.2</ele><time>2026-03-22T08:28:00.144Z</time></trkpt><trkpt lat="49.2961558" lon="5.7466314"><ele>266.0</ele><time>2026-03-22T08:28:01.144Z</time></trkpt><trkpt lat="49.2961532" lon="5.7467917"><ele>266.2</ele><time>2026-03-22T08:28:02.144Z</time></trkpt><trkpt lat="49.2961467" lon="5.7469556"><ele>266.40000000000003</ele><time>2026-03-22T08:28:03.144Z</time></trkpt><trkpt lat="49.2961402" lon="5.7471216"><ele>266.6</ele><time>2026-03-22T08:28:04.143Z</time></trkpt><trkpt lat="49.2961304" lon="5.747278"><ele>266.8</ele><time>2026-03-22T08:28:05.143Z</time></trkpt><trkpt lat="49.2961155" lon="5.747422"><ele>267.0</ele><time>2026-03-22T08:28:06.144Z</time></trkpt><trkpt lat="49.2961046" lon="5.7475481"><ele>267.0</ele><time>2026-03-22T08:28:07.144Z</time></trkpt><trkpt lat="49.2961082" lon="5.7476632"><ele>267.0</ele><time>2026-03-22T08:28:08.144Z</time></trkpt><trkpt lat="49.2961298" lon="5.7477584"><ele>267.0</ele><time>2026-03-22T08:28:09.144Z</time></trkpt><trkpt lat="49.2962199" lon="5.7478904"><ele>267.0</ele><time>2026-03-22T08:28:11.144Z</time></trkpt><trkpt lat="49.2962828" lon="5.7479225"><ele>267.0</ele><time>2026-03-22T08:28:12.144Z</time></trkpt><trkpt lat="49.2963577" lon="5.7479374"><ele>267.0</ele><time>2026-03-22T08:28:13.143Z</time></trkpt><trkpt lat="49.2964422" lon="5.7479332"><ele>267.5</ele><time>2026-03-22T08:28:14.143Z</time></trkpt><trkpt lat="49.2965175" lon="5.7479484"><ele>268.0</ele><time>2026-03-22T08:28:15.144Z</time></trkpt><trkpt lat="49.2965868" lon="5.7479612"><ele>268.5</ele><time>2026-03-22T08:28:16.144Z</time></trkpt><trkpt lat="49.2966696" lon="5.7480762"><ele>269.0</ele><time>2026-03-22T08:28:18.143Z</time></trkpt><trkpt lat="49.2966841" lon="5.748172"><ele>269.5</ele><time>2026-03-22T08:28:19.143Z</time></trkpt><trkpt lat="49.2966667" lon="5.7483028"><ele>270.0</ele><time>2026-03-22T08:28:20.143Z</time></trkpt><trkpt lat="49.2966462" lon="5.7484423"><ele>270.4</ele><time>2026-03-22T08:28:21.143Z</time></trkpt><trkpt lat="49.2966282" lon="5.7485819"><ele>270.8</ele><time>2026-03-22T08:28:22.144Z</time></trkpt><trkpt lat="49.2965998" lon="5.7487243"><ele>271.2</ele><time>2026-03-22T08:28:23.144Z</time></trkpt><trkpt lat="49.296577" lon="5.7488739"><ele>271.6</ele><time>2026-03-22T08:28:24.144Z</time></trkpt><trkpt lat="49.2965535" lon="5.7490326"><ele>272.0</ele><time>2026-03-22T08:28:25.144Z</time></trkpt><trkpt lat="49.2965407" lon="5.7491979"><ele>272.0</ele><time>2026-03-22T08:28:26.144Z</time></trkpt><trkpt lat="49.2965373" lon="5.7493695"><ele>272.0</ele><time>2026-03-22T08:28:27.143Z</time></trkpt><trkpt lat="49.2965363" lon="5.7495422"><ele>272.0</ele><time>2026-03-22T08:28:28.144Z</time></trkpt><trkpt lat="49.2965397" lon="5.7497185"><ele>272.0</ele><time>2026-03-22T08:28:29.143Z</time></trkpt><trkpt lat="49.2965372" lon="5.7498951"><ele>272.6</ele><time>2026-03-22T08:28:30.145Z</time></trkpt><trkpt lat="49.2965366" lon="5.7500645"><ele>273.2</ele><time>2026-03-22T08:28:31.144Z</time></trkpt><trkpt lat="49.2965391" lon="5.7502274"><ele>273.8</ele><time>2026-03-22T08:28:32.145Z</time></trkpt><trkpt lat="49.2965437" lon="5.750384"><ele>274.4</ele><time>2026-03-22T08:28:33.145Z</time></trkpt><trkpt lat="49.2965445" lon="5.7505293"><ele>275.0</ele><time>2026-03-22T08:28:34.144Z</time></trkpt><trkpt lat="49.2965484" lon="5.7506733"><ele>275.4</ele><time>2026-03-22T08:28:35.143Z</time></trkpt><trkpt lat="49.2965493" lon="5.7508193"><ele>275.8</ele><time>2026-03-22T08:28:36.143Z</time></trkpt><trkpt lat="49.2965487" lon="5.7509639"><ele>276.2</ele><time>2026-03-22T08:28:37.143Z</time></trkpt><trkpt lat="49.2965448" lon="5.7511074"><ele>276.6</ele><time>2026-03-22T08:28:38.144Z</time></trkpt><trkpt lat="49.2965446" lon="5.7512549"><ele>277.0</ele><time>2026-03-22T08:28:39.144Z</time></trkpt><trkpt lat="49.2965413" lon="5.7514012"><ele>277.2</ele><time>2026-03-22T08:28:40.143Z</time></trkpt><trkpt lat="49.2965387" lon="5.7515531"><ele>277.4</ele><time>2026-03-22T08:28:41.143Z</time></trkpt><trkpt lat="49.2965413" lon="5.7517024"><ele>277.6</ele><time>2026-03-22T08:28:42.143Z</time></trkpt><trkpt lat="49.2965419" lon="5.7518504"><ele>277.8</ele><time>2026-03-22T08:28:43.144Z</time></trkpt><trkpt lat="49.2965402" lon="5.7519997"><ele>278.0</ele><time>2026-03-22T08:28:44.144Z</time></trkpt><trkpt lat="49.2965423" lon="5.7521538"><ele>278.6</ele><time>2026-03-22T08:28:45.143Z</time></trkpt><trkpt lat="49.2965536" lon="5.7523094"><ele>279.20000000000005</ele><time>2026-03-22T08:28:46.144Z</time></trkpt><trkpt lat="49.2965663" lon="5.7524652"><ele>279.8</ele><time>2026-03-22T08:28:47.144Z</time></trkpt><trkpt lat="49.2965775" lon="5.7526241"><ele>280.40000000000003</ele><time>2026-03-22T08:28:48.144Z</time></trkpt><trkpt lat="49.2965816" lon="5.7527819"><ele>281.0</ele><time>2026-03-22T08:28:49.144Z</time></trkpt><trkpt lat="49.296588" lon="5.7529422"><ele>281.2</ele><time>2026-03-22T08:28:50.144Z</time></trkpt><trkpt lat="49.2966088" lon="5.7530966"><ele>281.40000000000003</ele><time>2026-03-22T08:28:51.143Z</time></trkpt><trkpt lat="49.2966312" lon="5.7532423"><ele>281.6</ele><time>2026-03-22T08:28:52.144Z</time></trkpt><trkpt lat="49.2966559" lon="5.7533866"><ele>281.8</ele><time>2026-03-22T08:28:53.144Z</time></trkpt><trkpt lat="49.2966816" lon="5.7535241"><ele>282.0</ele><time>2026-03-22T08:28:54.144Z</time></trkpt><trkpt lat="49.2967078" lon="5.7536647"><ele>282.1666666666667</ele><time>2026-03-22T08:28:55.144Z</time></trkpt><trkpt lat="49.296732" lon="5.7538033"><ele>282.3333333333333</ele><time>2026-03-22T08:28:56.144Z</time></trkpt><trkpt lat="49.2967613" lon="5.7539303"><ele>282.5</ele><time>2026-03-22T08:28:57.144Z</time></trkpt><trkpt lat="49.2967939" lon="5.7540521"><ele>282.66666666666663</ele><time>2026-03-22T08:28:58.143Z</time></trkpt><trkpt lat="49.296825" lon="5.7541674"><ele>282.8333333333333</ele><time>2026-03-22T08:28:59.144Z</time></trkpt><trkpt lat="49.2968528" lon="5.7542741"><ele>283.0</ele><time>2026-03-22T08:29:00.143Z</time></trkpt><trkpt lat="49.2968729" lon="5.7543775"><ele>283.2</ele><time>2026-03-22T08:29:01.145Z</time></trkpt><trkpt lat="49.2968344" lon="5.7545162"><ele>283.4</ele><time>2026-03-22T08:29:03.144Z</time></trkpt><trkpt lat="49.2967371" lon="5.754572"><ele>283.59999999999997</ele><time>2026-03-22T08:29:05.144Z</time></trkpt><trkpt lat="49.2966281" lon="5.7546297"><ele>283.8</ele><time>2026-03-22T08:29:07.144Z</time></trkpt><trkpt lat="49.2965311" lon="5.7546781"><ele>284.0</ele><time>2026-03-22T08:29:09.143Z</time></trkpt><trkpt lat="49.2964731" lon="5.7547523"><ele>284.0</ele><time>2026-03-22T08:29:11.144Z</time></trkpt><trkpt lat="49.2964889" lon="5.754879"><ele>284.0</ele><time>2026-03-22T08:29:13.143Z</time></trkpt><trkpt lat="49.2965221" lon="5.7550073"><ele>284.0</ele><time>2026-03-22T08:29:15.144Z</time></trkpt><trkpt lat="49.2965688" lon="5.7551534"><ele>284.0</ele><time>2026-03-22T08:29:17.144Z</time></trkpt><trkpt lat="49.2966039" lon="5.7552353"><ele>284.0</ele><time>2026-03-22T08:29:18.145Z</time></trkpt><trkpt lat="49.2966751" lon="5.7553876"><ele>283.75</ele><time>2026-03-22T08:29:20.143Z</time></trkpt><trkpt lat="49.2967434" lon="5.7555256"><ele>283.5</ele><time>2026-03-22T08:29:22.144Z</time></trkpt><trkpt lat="49.2968203" lon="5.7556653"><ele>283.25</ele><time>2026-03-22T08:29:24.145Z</time></trkpt><trkpt lat="49.2968739" lon="5.7558287"><ele>283.0</ele><time>2026-03-22T08:29:26.145Z</time></trkpt><trkpt lat="49.2969239" lon="5.7560072"><ele>282.8333333333333</ele><time>2026-03-22T08:29:28.144Z</time></trkpt><trkpt lat="49.2969499" lon="5.756103"><ele>282.66666666666663</ele><time>2026-03-22T08:29:29.144Z</time></trkpt><trkpt lat="49.2969876" lon="5.7562065"><ele>282.5</ele><time>2026-03-22T08:29:30.144Z</time></trkpt><trkpt lat="49.2970247" lon="5.7563076"><ele>282.3333333333333</ele><time>2026-03-22T08:29:31.144Z</time></trkpt><trkpt lat="49.2970543" lon="5.7564042"><ele>282.1666666666667</ele><time>2026-03-22T08:29:32.144Z</time></trkpt><trkpt lat="49.2971257" lon="5.7565546"><ele>282.0</ele><time>2026-03-22T08:29:34.144Z</time></trkpt><trkpt lat="49.2971719" lon="5.7566393"><ele>282.0</ele><time>2026-03-22T08:29:35.143Z</time></trkpt><trkpt lat="49.297213" lon="5.7567281"><ele>282.0</ele><time>2026-03-22T08:29:36.143Z</time></trkpt><trkpt lat="49.2972866" lon="5.7568625"><ele>282.0</ele><time>2026-03-22T08:29:38.144Z</time></trkpt><trkpt lat="49.2973562" lon="5.7569816"><ele>282.0</ele><time>2026-03-22T08:29:40.144Z</time></trkpt><trkpt lat="49.2973988" lon="5.7570656"><ele>282.0</ele><time>2026-03-22T08:29:41.143Z</time></trkpt><trkpt lat="49.2974486" lon="5.7571581"><ele>282.0</ele><time>2026-03-22T08:29:42.144Z</time></trkpt><trkpt lat="49.2975022" lon="5.7572588"><ele>281.8</ele><time>2026-03-22T08:29:43.144Z</time></trkpt><trkpt lat="49.2975629" lon="5.7573578"><ele>281.6</ele><time>2026-03-22T08:29:44.144Z</time></trkpt><trkpt lat="49.2976249" lon="5.7574584"><ele>281.40000000000003</ele><time>2026-03-22T08:29:45.144Z</time></trkpt><trkpt lat="49.2976968" lon="5.757551"><ele>281.2</ele><time>2026-03-22T08:29:46.144Z</time></trkpt><trkpt lat="49.297765" lon="5.7576435"><ele>281.0</ele><time>2026-03-22T08:29:47.145Z</time></trkpt><trkpt lat="49.2978309" lon="5.7577453"><ele>279.8</ele><time>2026-03-22T08:29:48.144Z</time></trkpt><trkpt lat="49.2978882" lon="5.7578364"><ele>278.6</ele><time>2026-03-22T08:29:49.144Z</time></trkpt><trkpt lat="49.2979355" lon="5.7579114"><ele>277.4</ele><time>2026-03-22T08:29:50.144Z</time></trkpt><trkpt lat="49.2979594" lon="5.7580514"><ele>276.2</ele><time>2026-03-22T08:29:52.144Z</time></trkpt><trkpt lat="49.2979041" lon="5.7581834"><ele>275.0</ele><time>2026-03-22T08:29:54.144Z</time></trkpt><trkpt lat="49.2978032" lon="5.7583189"><ele>275.0</ele><time>2026-03-22T08:29:56.143Z</time></trkpt><trkpt lat="49.297736" lon="5.7583935"><ele>275.0</ele><time>2026-03-22T08:29:57.144Z</time></trkpt><trkpt lat="49.2976692" lon="5.7584741"><ele>275.0</ele><time>2026-03-22T08:29:58.145Z</time></trkpt><trkpt lat="49.2976033" lon="5.7585456"><ele>275.0</ele><time>2026-03-22T08:29:59.144Z</time></trkpt><trkpt lat="49.2975462" lon="5.758611"><ele>275.0</ele><time>2026-03-22T08:30:00.144Z</time></trkpt><trkpt lat="49.2974903" lon="5.7586723"><ele>275.0</ele><time>2026-03-22T08:30:01.144Z</time></trkpt><trkpt lat="49.2974345" lon="5.7587369"><ele>274.33333333333337</ele><time>2026-03-22T08:30:02.144Z</time></trkpt><trkpt lat="49.297375" lon="5.7588152"><ele>273.6666666666667</ele><time>2026-03-22T08:30:03.144Z</time></trkpt><trkpt lat="49.2973112" lon="5.7588897"><ele>273.0</ele><time>2026-03-22T08:30:04.145Z</time></trkpt><trkpt lat="49.2972447" lon="5.7589644"><ele>272.3333333333333</ele><time>2026-03-22T08:30:05.144Z</time></trkpt><trkpt lat="49.2971757" lon="5.7590413"><ele>271.66666666666663</ele><time>2026-03-22T08:30:06.144Z</time></trkpt><trkpt lat="49.2971062" lon="5.7591198"><ele>271.0</ele><time>2026-03-22T08:30:07.144Z</time></trkpt><trkpt lat="49.2970387" lon="5.7591931"><ele>270.3333333333333</ele><time>2026-03-22T08:30:08.144Z</time></trkpt><trkpt lat="49.2969697" lon="5.7592695"><ele>269.66666666666663</ele><time>2026-03-22T08:30:09.145Z</time></trkpt><trkpt lat="49.296899" lon="5.7593531"><ele>269.0</ele><time>2026-03-22T08:30:10.145Z</time></trkpt><trkpt lat="49.2968237" lon="5.7594368"><ele>268.3333333333333</ele><time>2026-03-22T08:30:11.144Z</time></trkpt><trkpt lat="49.2967504" lon="5.7595173"><ele>267.6666666666667</ele><time>2026-03-22T08:30:12.143Z</time></trkpt><trkpt lat="49.2966794" lon="5.7595855"><ele>267.0</ele><time>2026-03-22T08:30:13.144Z</time></trkpt><trkpt lat="49.2966145" lon="5.7596623"><ele>266.6666666666667</ele><time>2026-03-22T08:30:14.143Z</time></trkpt><trkpt lat="49.2965415" lon="5.7597386"><ele>266.3333333333333</ele><time>2026-03-22T08:30:15.144Z</time></trkpt><trkpt lat="49.2964716" lon="5.7598122"><ele>266.0</ele><time>2026-03-22T08:30:16.145Z</time></trkpt><trkpt lat="49.296405" lon="5.7598827"><ele>265.66666666666663</ele><time>2026-03-22T08:30:17.145Z</time></trkpt><trkpt lat="49.2963389" lon="5.7599529"><ele>265.3333333333333</ele><time>2026-03-22T08:30:18.144Z</time></trkpt><trkpt lat="49.2962734" lon="5.7600234"><ele>265.0</ele><time>2026-03-22T08:30:19.143Z</time></trkpt><trkpt lat="49.2962061" lon="5.7600905"><ele>264.8333333333333</ele><time>2026-03-22T08:30:20.144Z</time></trkpt><trkpt lat="49.2961405" lon="5.760149"><ele>264.66666666666663</ele><time>2026-03-22T08:30:21.144Z</time></trkpt><trkpt lat="49.2960809" lon="5.7602118"><ele>264.5</ele><time>2026-03-22T08:30:22.143Z</time></trkpt><trkpt lat="49.2960263" lon="5.7602671"><ele>264.3333333333333</ele><time>2026-03-22T08:30:23.143Z</time></trkpt><trkpt lat="49.2959894" lon="5.7603974"><ele>264.1666666666667</ele><time>2026-03-22T08:30:25.143Z</time></trkpt><trkpt lat="49.2960532" lon="5.7605321"><ele>264.0</ele><time>2026-03-22T08:30:27.143Z</time></trkpt><trkpt lat="49.2960966" lon="5.7606083"><ele>264.0</ele><time>2026-03-22T08:30:28.143Z</time></trkpt><trkpt lat="49.2961457" lon="5.760686"><ele>264.0</ele><time>2026-03-22T08:30:29.143Z</time></trkpt><trkpt lat="49.2961942" lon="5.7607657"><ele>264.0</ele><time>2026-03-22T08:30:30.143Z</time></trkpt><trkpt lat="49.2962446" lon="5.760849"><ele>264.0</ele><time>2026-03-22T08:30:31.143Z</time></trkpt><trkpt lat="49.2962978" lon="5.7609414"><ele>264.0</ele><time>2026-03-22T08:30:32.144Z</time></trkpt><trkpt lat="49.2963468" lon="5.7610196"><ele>264.0</ele><time>2026-03-22T08:30:33.144Z</time></trkpt><trkpt lat="49.2964367" lon="5.7611026"><ele>264.59999999999997</ele><time>2026-03-22T08:30:35.144Z</time></trkpt><trkpt lat="49.2965457" lon="5.7611071"><ele>265.2</ele><time>2026-03-22T08:30:37.143Z</time></trkpt><trkpt lat="49.2966337" lon="5.7611495"><ele>265.79999999999995</ele><time>2026-03-22T08:30:39.144Z</time></trkpt><trkpt lat="49.2966224" lon="5.7612605"><ele>266.4</ele><time>2026-03-22T08:30:41.143Z</time></trkpt><trkpt lat="49.2965121" lon="5.7612996"><ele>267.0</ele><time>2026-03-22T08:30:43.143Z</time></trkpt><trkpt lat="49.2964357" lon="5.7613179"><ele>266.2</ele><time>2026-03-22T08:30:44.144Z</time></trkpt><trkpt lat="49.2963433" lon="5.7613395"><ele>265.4</ele><time>2026-03-22T08:30:45.144Z</time></trkpt><trkpt lat="49.296245" lon="5.7613695"><ele>264.6</ele><time>2026-03-22T08:30:46.144Z</time></trkpt><trkpt lat="49.2961437" lon="5.7614178"><ele>263.8</ele><time>2026-03-22T08:30:47.144Z</time></trkpt><trkpt lat="49.2960451" lon="5.7614917"><ele>263.0</ele><time>2026-03-22T08:30:48.144Z</time></trkpt><trkpt lat="49.2959473" lon="5.7615839"><ele>263.0</ele><time>2026-03-22T08:30:49.143Z</time></trkpt><trkpt lat="49.2958476" lon="5.7616898"><ele>263.0</ele><time>2026-03-22T08:30:50.143Z</time></trkpt><trkpt lat="49.2957456" lon="5.7617957"><ele>263.0</ele><time>2026-03-22T08:30:51.144Z</time></trkpt><trkpt lat="49.295646" lon="5.7618998"><ele>263.0</ele><time>2026-03-22T08:30:52.144Z</time></trkpt><trkpt lat="49.2955445" lon="5.7620089"><ele>263.0</ele><time>2026-03-22T08:30:53.144Z</time></trkpt><trkpt lat="49.2954388" lon="5.7621072"><ele>263.0</ele><time>2026-03-22T08:30:54.143Z</time></trkpt><trkpt lat="49.2953389" lon="5.7622023"><ele>263.0</ele><time>2026-03-22T08:30:55.143Z</time></trkpt><trkpt lat="49.2952385" lon="5.7622741"><ele>263.0</ele><time>2026-03-22T08:30:56.143Z</time></trkpt><trkpt lat="49.2951398" lon="5.7623199"><ele>263.0</ele><time>2026-03-22T08:30:57.144Z</time></trkpt><trkpt lat="49.2950538" lon="5.7623338"><ele>263.0</ele><time>2026-03-22T08:30:58.144Z</time></trkpt><trkpt lat="49.2949766" lon="5.7623341"><ele>263.0</ele><time>2026-03-22T08:30:59.144Z</time></trkpt><trkpt lat="49.2948827" lon="5.7624179"><ele>263.0</ele><time>2026-03-22T08:31:01.144Z</time></trkpt><trkpt lat="49.2948808" lon="5.7626035"><ele>263.0</ele><time>2026-03-22T08:31:03.144Z</time></trkpt><trkpt lat="49.294917" lon="5.7627215"><ele>263.2</ele><time>2026-03-22T08:31:04.143Z</time></trkpt><trkpt lat="49.2949576" lon="5.7628636"><ele>263.4</ele><time>2026-03-22T08:31:05.144Z</time></trkpt><trkpt lat="49.2949958" lon="5.7630202"><ele>263.59999999999997</ele><time>2026-03-22T08:31:06.143Z</time></trkpt><trkpt lat="49.2950305" lon="5.7631885"><ele>263.8</ele><time>2026-03-22T08:31:07.143Z</time></trkpt><trkpt lat="49.2950625" lon="5.7633647"><ele>264.0</ele><time>2026-03-22T08:31:08.144Z</time></trkpt><trkpt lat="49.2950981" lon="5.763544"><ele>264.25</ele><time>2026-03-22T08:31:09.143Z</time></trkpt><trkpt lat="49.2951307" lon="5.7637251"><ele>264.5</ele><time>2026-03-22T08:31:10.144Z</time></trkpt><trkpt lat="49.2951602" lon="5.7639121"><ele>264.75</ele><time>2026-03-22T08:31:11.144Z</time></trkpt><trkpt lat="49.2951892" lon="5.7641052"><ele>265.0</ele><time>2026-03-22T08:31:12.144Z</time></trkpt><trkpt lat="49.2952224" lon="5.7642997"><ele>265.25</ele><time>2026-03-22T08:31:13.145Z</time></trkpt><trkpt lat="49.2952509" lon="5.7644922"><ele>265.5</ele><time>2026-03-22T08:31:14.144Z</time></trkpt><trkpt lat="49.2952767" lon="5.7646848"><ele>265.75</ele><time>2026-03-22T08:31:15.144Z</time></trkpt><trkpt lat="49.2953045" lon="5.7648707"><ele>266.0</ele><time>2026-03-22T08:31:16.143Z</time></trkpt><trkpt lat="49.29533" lon="5.7650579"><ele>266.25</ele><time>2026-03-22T08:31:17.145Z</time></trkpt><trkpt lat="49.2953546" lon="5.7652547"><ele>266.5</ele><time>2026-03-22T08:31:18.145Z</time></trkpt><trkpt lat="49.2953781" lon="5.7654554"><ele>266.75</ele><time>2026-03-22T08:31:19.144Z</time></trkpt><trkpt lat="49.2954049" lon="5.7656526"><ele>267.0</ele><time>2026-03-22T08:31:20.144Z</time></trkpt><trkpt lat="49.2954276" lon="5.7658517"><ele>267.0</ele><time>2026-03-22T08:31:21.143Z</time></trkpt><trkpt lat="49.295451" lon="5.7660447"><ele>267.0</ele><time>2026-03-22T08:31:22.144Z</time></trkpt><trkpt lat="49.2954743" lon="5.7662364"><ele>267.0</ele><time>2026-03-22T08:31:23.144Z</time></trkpt><trkpt lat="49.2954882" lon="5.7664129"><ele>267.0</ele><time>2026-03-22T08:31:24.144Z</time></trkpt><trkpt lat="49.2955041" lon="5.7665876"><ele>267.0</ele><time>2026-03-22T08:31:25.144Z</time></trkpt><trkpt lat="49.2955323" lon="5.7667382"><ele>267.0</ele><time>2026-03-22T08:31:26.144Z</time></trkpt><trkpt lat="49.2955618" lon="5.7668813"><ele>267.0</ele><time>2026-03-22T08:31:27.144Z</time></trkpt><trkpt lat="49.2955917" lon="5.7670254"><ele>267.0</ele><time>2026-03-22T08:31:28.144Z</time></trkpt><trkpt lat="49.295619" lon="5.7671692"><ele>267.0</ele><time>2026-03-22T08:31:29.144Z</time></trkpt><trkpt lat="49.2956456" lon="5.7673084"><ele>267.0</ele><time>2026-03-22T08:31:30.143Z</time></trkpt><trkpt lat="49.2956757" lon="5.7674493"><ele>267.0</ele><time>2026-03-22T08:31:31.144Z</time></trkpt><trkpt lat="49.2957042" lon="5.7675858"><ele>267.0</ele><time>2026-03-22T08:31:32.143Z</time></trkpt><trkpt lat="49.2957328" lon="5.7677296"><ele>267.0</ele><time>2026-03-22T08:31:33.144Z</time></trkpt><trkpt lat="49.295764" lon="5.7678739"><ele>267.0</ele><time>2026-03-22T08:31:34.144Z</time></trkpt><trkpt lat="49.2957943" lon="5.7680192"><ele>267.2</ele><time>2026-03-22T08:31:35.143Z</time></trkpt><trkpt lat="49.2958262" lon="5.7681678"><ele>267.4</ele><time>2026-03-22T08:31:36.143Z</time></trkpt><trkpt lat="49.2958551" lon="5.7683211"><ele>267.6</ele><time>2026-03-22T08:31:37.143Z</time></trkpt><trkpt lat="49.2958852" lon="5.768477"><ele>267.8</ele><time>2026-03-22T08:31:38.144Z</time></trkpt><trkpt lat="49.2959141" lon="5.7686274"><ele>268.0</ele><time>2026-03-22T08:31:39.144Z</time></trkpt><trkpt lat="49.2959322" lon="5.7687785"><ele>268.2</ele><time>2026-03-22T08:31:40.144Z</time></trkpt><trkpt lat="49.2959454" lon="5.7689289"><ele>268.4</ele><time>2026-03-22T08:31:41.143Z</time></trkpt><trkpt lat="49.2959528" lon="5.7690834"><ele>268.59999999999997</ele><time>2026-03-22T08:31:42.145Z</time></trkpt><trkpt lat="49.2959511" lon="5.769237"><ele>268.8</ele><time>2026-03-22T08:31:43.144Z</time></trkpt><trkpt lat="49.2959528" lon="5.7693914"><ele>269.0</ele><time>2026-03-22T08:31:44.143Z</time></trkpt><trkpt lat="49.2959575" lon="5.7695434"><ele>269.2</ele><time>2026-03-22T08:31:45.144Z</time></trkpt><trkpt lat="49.2959646" lon="5.7696938"><ele>269.4</ele><time>2026-03-22T08:31:46.143Z</time></trkpt><trkpt lat="49.2959713" lon="5.7698454"><ele>269.6</ele><time>2026-03-22T08:31:47.144Z</time></trkpt><trkpt lat="49.295978" lon="5.7699996"><ele>269.8</ele><time>2026-03-22T08:31:48.144Z</time></trkpt><trkpt lat="49.2959855" lon="5.7701547"><ele>270.0</ele><time>2026-03-22T08:31:49.144Z</time></trkpt><trkpt lat="49.2959885" lon="5.7703145"><ele>270.4</ele><time>2026-03-22T08:31:50.143Z</time></trkpt><trkpt lat="49.295996" lon="5.7704826"><ele>270.8</ele><time>2026-03-22T08:31:51.143Z</time></trkpt><trkpt lat="49.2960032" lon="5.7706474"><ele>271.2</ele><time>2026-03-22T08:31:52.143Z</time></trkpt><trkpt lat="49.2960078" lon="5.7708117"><ele>271.6</ele><time>2026-03-22T08:31:53.144Z</time></trkpt><trkpt lat="49.2960117" lon="5.7709777"><ele>272.0</ele><time>2026-03-22T08:31:54.144Z</time></trkpt><trkpt lat="49.2960138" lon="5.7711532"><ele>272.0</ele><time>2026-03-22T08:31:55.144Z</time></trkpt><trkpt lat="49.2960173" lon="5.7713337"><ele>272.0</ele><time>2026-03-22T08:31:56.143Z</time></trkpt><trkpt lat="49.2960245" lon="5.7715056"><ele>272.0</ele><time>2026-03-22T08:31:57.145Z</time></trkpt><trkpt lat="49.2960309" lon="5.7716816"><ele>272.0</ele><time>2026-03-22T08:31:58.144Z</time></trkpt><trkpt lat="49.2960361" lon="5.7718555"><ele>272.2</ele><time>2026-03-22T08:31:59.143Z</time></trkpt><trkpt lat="49.2960384" lon="5.7720224"><ele>272.4</ele><time>2026-03-22T08:32:00.144Z</time></trkpt><trkpt lat="49.2960301" lon="5.7721867"><ele>272.6</ele><time>2026-03-22T08:32:01.145Z</time></trkpt><trkpt lat="49.296013" lon="5.7723523"><ele>272.8</ele><time>2026-03-22T08:32:02.143Z</time></trkpt><trkpt lat="49.2959845" lon="5.7725129"><ele>273.0</ele><time>2026-03-22T08:32:03.145Z</time></trkpt><trkpt lat="49.2959456" lon="5.7726639"><ele>273.1666666666667</ele><time>2026-03-22T08:32:04.144Z</time></trkpt><trkpt lat="49.2959136" lon="5.7727962"><ele>273.3333333333333</ele><time>2026-03-22T08:32:05.144Z</time></trkpt><trkpt lat="49.2958908" lon="5.77292"><ele>273.5</ele><time>2026-03-22T08:32:06.144Z</time></trkpt><trkpt lat="49.2958864" lon="5.7730409"><ele>273.66666666666663</ele><time>2026-03-22T08:32:07.144Z</time></trkpt><trkpt lat="49.2959083" lon="5.7731626"><ele>273.8333333333333</ele><time>2026-03-22T08:32:08.144Z</time></trkpt><trkpt lat="49.2959513" lon="5.7732735"><ele>274.0</ele><time>2026-03-22T08:32:09.144Z</time></trkpt><trkpt lat="49.2960015" lon="5.7733843"><ele>274.0</ele><time>2026-03-22T08:32:10.144Z</time></trkpt><trkpt lat="49.2960411" lon="5.7735014"><ele>274.0</ele><time>2026-03-22T08:32:11.143Z</time></trkpt><trkpt lat="49.2960747" lon="5.7736325"><ele>274.0</ele><time>2026-03-22T08:32:12.144Z</time></trkpt><trkpt lat="49.2961028" lon="5.7737694"><ele>274.0</ele><time>2026-03-22T08:32:13.145Z</time></trkpt><trkpt lat="49.296124" lon="5.7739091"><ele>274.0</ele><time>2026-03-22T08:32:14.143Z</time></trkpt><trkpt lat="49.296142" lon="5.7740541"><ele>274.4</ele><time>2026-03-22T08:32:15.144Z</time></trkpt><trkpt lat="49.2961637" lon="5.7742013"><ele>274.79999999999995</ele><time>2026-03-22T08:32:16.143Z</time></trkpt><trkpt lat="49.296185" lon="5.7743483"><ele>275.20000000000005</ele><time>2026-03-22T08:32:17.144Z</time></trkpt><trkpt lat="49.2962064" lon="5.7744954"><ele>275.6</ele><time>2026-03-22T08:32:18.144Z</time></trkpt><trkpt lat="49.2962311" lon="5.7746422"><ele>276.0</ele><time>2026-03-22T08:32:19.144Z</time></trkpt><trkpt lat="49.2962553" lon="5.7747888"><ele>276.2</ele><time>2026-03-22T08:32:20.144Z</time></trkpt><trkpt lat="49.2962785" lon="5.7749407"><ele>276.40000000000003</ele><time>2026-03-22T08:32:21.143Z</time></trkpt><trkpt lat="49.2963009" lon="5.7750917"><ele>276.6</ele><time>2026-03-22T08:32:22.144Z</time></trkpt><trkpt lat="49.2963272" lon="5.7752405"><ele>276.8</ele><time>2026-03-22T08:32:23.144Z</time></trkpt><trkpt lat="49.2963538" lon="5.7753849"><ele>277.0</ele><time>2026-03-22T08:32:24.144Z</time></trkpt><trkpt lat="49.2963754" lon="5.7755256"><ele>277.2</ele><time>2026-03-22T08:32:25.143Z</time></trkpt><trkpt lat="49.2963985" lon="5.7756687"><ele>277.4</ele><time>2026-03-22T08:32:26.144Z</time></trkpt><trkpt lat="49.2964199" lon="5.7758095"><ele>277.6</ele><time>2026-03-22T08:32:27.143Z</time></trkpt><trkpt lat="49.2964446" lon="5.775948"><ele>277.8</ele><time>2026-03-22T08:32:28.145Z</time></trkpt><trkpt lat="49.2964692" lon="5.7760866"><ele>278.0</ele><time>2026-03-22T08:32:29.144Z</time></trkpt><trkpt lat="49.2964938" lon="5.7762179"><ele>278.1666666666667</ele><time>2026-03-22T08:32:30.143Z</time></trkpt><trkpt lat="49.2965147" lon="5.7763383"><ele>278.33333333333337</ele><time>2026-03-22T08:32:31.144Z</time></trkpt><trkpt lat="49.296529" lon="5.776448"><ele>278.5</ele><time>2026-03-22T08:32:32.144Z</time></trkpt><trkpt lat="49.2965409" lon="5.7765517"><ele>278.6666666666667</ele><time>2026-03-22T08:32:33.144Z</time></trkpt><trkpt lat="49.2965443" lon="5.7766489"><ele>278.8333333333333</ele><time>2026-03-22T08:32:34.143Z</time></trkpt><trkpt lat="49.2965052" lon="5.7767834"><ele>279.0</ele><time>2026-03-22T08:32:36.143Z</time></trkpt><trkpt lat="49.2964775" lon="5.7769196"><ele>279.3333333333333</ele><time>2026-03-22T08:32:39.143Z</time></trkpt><trkpt lat="49.2965056" lon="5.7770758"><ele>279.6666666666667</ele><time>2026-03-22T08:32:41.145Z</time></trkpt><trkpt lat="49.2965282" lon="5.7771753"><ele>280.0</ele><time>2026-03-22T08:32:42.144Z</time></trkpt><trkpt lat="49.2965488" lon="5.7772911"><ele>280.33333333333337</ele><time>2026-03-22T08:32:43.143Z</time></trkpt><trkpt lat="49.2965702" lon="5.7774152"><ele>280.6666666666667</ele><time>2026-03-22T08:32:44.143Z</time></trkpt><trkpt lat="49.2965917" lon="5.7775335"><ele>281.0</ele><time>2026-03-22T08:32:45.143Z</time></trkpt><trkpt lat="49.2966106" lon="5.7776324"><ele>281.33333333333337</ele><time>2026-03-22T08:32:46.145Z</time></trkpt><trkpt lat="49.2966314" lon="5.7777577"><ele>281.6666666666667</ele><time>2026-03-22T08:32:48.145Z</time></trkpt><trkpt lat="49.2966671" lon="5.7778476"><ele>282.0</ele><time>2026-03-22T08:32:51.144Z</time></trkpt><trkpt lat="49.2967565" lon="5.7778424"><ele>282.3333333333333</ele><time>2026-03-22T08:32:53.143Z</time></trkpt><trkpt lat="49.2968179" lon="5.777815"><ele>282.66666666666663</ele><time>2026-03-22T08:32:54.144Z</time></trkpt><trkpt lat="49.2968815" lon="5.7777803"><ele>283.0</ele><time>2026-03-22T08:32:55.144Z</time></trkpt><trkpt lat="49.2969583" lon="5.7777414"><ele>283.0</ele><time>2026-03-22T08:32:56.144Z</time></trkpt><trkpt lat="49.2970424" lon="5.777693"><ele>283.0</ele><time>2026-03-22T08:32:57.143Z</time></trkpt><trkpt lat="49.2971317" lon="5.7776424"><ele>283.0</ele><time>2026-03-22T08:32:58.143Z</time></trkpt><trkpt lat="49.2972313" lon="5.7775901"><ele>283.0</ele><time>2026-03-22T08:32:59.143Z</time></trkpt><trkpt lat="49.2973347" lon="5.7775395"><ele>283.0</ele><time>2026-03-22T08:33:00.143Z</time></trkpt><trkpt lat="49.2974445" lon="5.7774842"><ele>282.5</ele><time>2026-03-22T08:33:01.144Z</time></trkpt><trkpt lat="49.2975549" lon="5.7774259"><ele>282.0</ele><time>2026-03-22T08:33:02.144Z</time></trkpt><trkpt lat="49.2976682" lon="5.7773663"><ele>281.5</ele><time>2026-03-22T08:33:03.144Z</time></trkpt><trkpt lat="49.2977853" lon="5.7773078"><ele>281.0</ele><time>2026-03-22T08:33:04.143Z</time></trkpt><trkpt lat="49.2979056" lon="5.7772494"><ele>281.0</ele><time>2026-03-22T08:33:05.143Z</time></trkpt><trkpt lat="49.2980236" lon="5.777187"><ele>281.0</ele><time>2026-03-22T08:33:06.143Z</time></trkpt><trkpt lat="49.2981382" lon="5.7771216"><ele>281.0</ele><time>2026-03-22T08:33:07.143Z</time></trkpt><trkpt lat="49.2982502" lon="5.777058"><ele>281.0</ele><time>2026-03-22T08:33:08.144Z</time></trkpt><trkpt lat="49.2983569" lon="5.7769962"><ele>281.2</ele><time>2026-03-22T08:33:09.144Z</time></trkpt><trkpt lat="49.2984622" lon="5.7769337"><ele>281.40000000000003</ele><time>2026-03-22T08:33:10.143Z</time></trkpt><trkpt lat="49.298565" lon="5.7768684"><ele>281.6</ele><time>2026-03-22T08:33:11.143Z</time></trkpt><trkpt lat="49.2986618" lon="5.7768007"><ele>281.8</ele><time>2026-03-22T08:33:12.144Z</time></trkpt><trkpt lat="49.2987557" lon="5.7767347"><ele>282.0</ele><time>2026-03-22T08:33:13.144Z</time></trkpt><trkpt lat="49.2988493" lon="5.7766748"><ele>283.2</ele><time>2026-03-22T08:33:14.144Z</time></trkpt><trkpt lat="49.2989415" lon="5.7766147"><ele>284.4</ele><time>2026-03-22T08:33:15.144Z</time></trkpt><trkpt lat="49.2990307" lon="5.7765541"><ele>285.6</ele><time>2026-03-22T08:33:16.144Z</time></trkpt><trkpt lat="49.2991253" lon="5.7764983"><ele>286.8</ele><time>2026-03-22T08:33:17.144Z</time></trkpt><trkpt lat="49.2992216" lon="5.7764421"><ele>288.0</ele><time>2026-03-22T08:33:18.144Z</time></trkpt><trkpt lat="49.2993167" lon="5.7763848"><ele>288.0</ele><time>2026-03-22T08:33:19.144Z</time></trkpt><trkpt lat="49.2994126" lon="5.7763288"><ele>288.0</ele><time>2026-03-22T08:33:20.144Z</time></trkpt><trkpt lat="49.2995099" lon="5.7762702"><ele>288.0</ele><time>2026-03-22T08:33:21.143Z</time></trkpt><trkpt lat="49.2996065" lon="5.7762054"><ele>288.0</ele><time>2026-03-22T08:33:22.143Z</time></trkpt><trkpt lat="49.2997044" lon="5.7761463"><ele>288.0</ele><time>2026-03-22T08:33:23.143Z</time></trkpt><trkpt lat="49.2997974" lon="5.7760852"><ele>289.8</ele><time>2026-03-22T08:33:24.145Z</time></trkpt><trkpt lat="49.2998751" lon="5.7760106"><ele>291.6</ele><time>2026-03-22T08:33:25.144Z</time></trkpt><trkpt lat="49.2999381" lon="5.7759145"><ele>293.4</ele><time>2026-03-22T08:33:26.144Z</time></trkpt><trkpt lat="49.2999896" lon="5.775801"><ele>295.2</ele><time>2026-03-22T08:33:27.145Z</time></trkpt><trkpt lat="49.3000265" lon="5.7756742"><ele>297.0</ele><time>2026-03-22T08:33:28.144Z</time></trkpt><trkpt lat="49.3000467" lon="5.7755295"><ele>297.0</ele><time>2026-03-22T08:33:29.143Z</time></trkpt><trkpt lat="49.3000614" lon="5.7753853"><ele>297.0</ele><time>2026-03-22T08:33:30.145Z</time></trkpt><trkpt lat="49.3000729" lon="5.7752328"><ele>297.0</ele><time>2026-03-22T08:33:31.144Z</time></trkpt><trkpt lat="49.3000871" lon="5.7750851"><ele>297.0</ele><time>2026-03-22T08:33:32.143Z</time></trkpt><trkpt lat="49.3001102" lon="5.7749541"><ele>297.0</ele><time>2026-03-22T08:33:33.144Z</time></trkpt><trkpt lat="49.30014" lon="5.7748395"><ele>297.4</ele><time>2026-03-22T08:33:34.144Z</time></trkpt><trkpt lat="49.3001839" lon="5.7747487"><ele>297.79999999999995</ele><time>2026-03-22T08:33:35.144Z</time></trkpt><trkpt lat="49.300295" lon="5.7746947"><ele>298.2</ele><time>2026-03-22T08:33:37.144Z</time></trkpt><trkpt lat="49.3004187" lon="5.7747521"><ele>298.59999999999997</ele><time>2026-03-22T08:33:39.144Z</time></trkpt><trkpt lat="49.3004886" lon="5.7747904"><ele>299.0</ele><time>2026-03-22T08:33:40.143Z</time></trkpt><trkpt lat="49.3005625" lon="5.7748304"><ele>299.4</ele><time>2026-03-22T08:33:41.144Z</time></trkpt><trkpt lat="49.3006458" lon="5.7748789"><ele>299.79999999999995</ele><time>2026-03-22T08:33:42.144Z</time></trkpt><trkpt lat="49.3007308" lon="5.7749319"><ele>300.20000000000005</ele><time>2026-03-22T08:33:43.144Z</time></trkpt><trkpt lat="49.3008215" lon="5.7749804"><ele>300.6</ele><time>2026-03-22T08:33:44.144Z</time></trkpt><trkpt lat="49.300919" lon="5.7750323"><ele>301.0</ele><time>2026-03-22T08:33:45.143Z</time></trkpt><trkpt lat="49.3010202" lon="5.7750891"><ele>301.0</ele><time>2026-03-22T08:33:46.144Z</time></trkpt><trkpt lat="49.3011261" lon="5.7751493"><ele>301.0</ele><time>2026-03-22T08:33:47.143Z</time></trkpt><trkpt lat="49.301235" lon="5.7752074"><ele>301.0</ele><time>2026-03-22T08:33:48.143Z</time></trkpt><trkpt lat="49.3013403" lon="5.7752638"><ele>301.0</ele><time>2026-03-22T08:33:49.143Z</time></trkpt><trkpt lat="49.3014443" lon="5.7753058"><ele>301.0</ele><time>2026-03-22T08:33:50.144Z</time></trkpt><trkpt lat="49.3015481" lon="5.7753191"><ele>301.8</ele><time>2026-03-22T08:33:51.143Z</time></trkpt><trkpt lat="49.3016523" lon="5.7752949"><ele>302.6</ele><time>2026-03-22T08:33:52.144Z</time></trkpt><trkpt lat="49.3017513" lon="5.7752408"><ele>303.4</ele><time>2026-03-22T08:33:53.144Z</time></trkpt><trkpt lat="49.3018359" lon="5.775157"><ele>304.2</ele><time>2026-03-22T08:33:54.144Z</time></trkpt><trkpt lat="49.3019132" lon="5.7750584"><ele>305.0</ele><time>2026-03-22T08:33:55.144Z</time></trkpt><trkpt lat="49.3019881" lon="5.7749549"><ele>305.0</ele><time>2026-03-22T08:33:56.144Z</time></trkpt><trkpt lat="49.3020668" lon="5.7748502"><ele>305.0</ele><time>2026-03-22T08:33:57.145Z</time></trkpt><trkpt lat="49.3021515" lon="5.7747455"><ele>305.0</ele><time>2026-03-22T08:33:58.144Z</time></trkpt><trkpt lat="49.3022408" lon="5.7746344"><ele>305.0</ele><time>2026-03-22T08:33:59.143Z</time></trkpt><trkpt lat="49.3023344" lon="5.7745226"><ele>305.0</ele><time>2026-03-22T08:34:00.144Z</time></trkpt><trkpt lat="49.3024291" lon="5.7744071"><ele>305.75</ele><time>2026-03-22T08:34:01.144Z</time></trkpt><trkpt lat="49.3025254" lon="5.7742892"><ele>306.5</ele><time>2026-03-22T08:34:02.143Z</time></trkpt><trkpt lat="49.3026183" lon="5.7741678"><ele>307.25</ele><time>2026-03-22T08:34:03.143Z</time></trkpt><trkpt lat="49.3027088" lon="5.7740474"><ele>308.0</ele><time>2026-03-22T08:34:04.144Z</time></trkpt><trkpt lat="49.3027985" lon="5.7739304"><ele>308.0</ele><time>2026-03-22T08:34:05.145Z</time></trkpt><trkpt lat="49.3028879" lon="5.7738114"><ele>308.0</ele><time>2026-03-22T08:34:06.144Z</time></trkpt><trkpt lat="49.3029788" lon="5.7736901"><ele>308.0</ele><time>2026-03-22T08:34:07.145Z</time></trkpt><trkpt lat="49.3030663" lon="5.7735725"><ele>308.0</ele><time>2026-03-22T08:34:08.144Z</time></trkpt><trkpt lat="49.3031542" lon="5.7734524"><ele>307.5</ele><time>2026-03-22T08:34:09.144Z</time></trkpt><trkpt lat="49.3032429" lon="5.7733366"><ele>307.0</ele><time>2026-03-22T08:34:10.145Z</time></trkpt><trkpt lat="49.3033312" lon="5.7732174"><ele>306.5</ele><time>2026-03-22T08:34:11.145Z</time></trkpt><trkpt lat="49.3034205" lon="5.7730998"><ele>306.0</ele><time>2026-03-22T08:34:12.143Z</time></trkpt><trkpt lat="49.3035067" lon="5.7729895"><ele>306.0</ele><time>2026-03-22T08:34:13.143Z</time></trkpt><trkpt lat="49.3035902" lon="5.7728721"><ele>306.0</ele><time>2026-03-22T08:34:14.144Z</time></trkpt><trkpt lat="49.3036717" lon="5.7727558"><ele>306.0</ele><time>2026-03-22T08:34:15.144Z</time></trkpt><trkpt lat="49.3037533" lon="5.7726397"><ele>306.0</ele><time>2026-03-22T08:34:16.143Z</time></trkpt><trkpt lat="49.3038295" lon="5.7725249"><ele>306.0</ele><time>2026-03-22T08:34:17.143Z</time></trkpt><trkpt lat="49.3038977" lon="5.7724063"><ele>305.8</ele><time>2026-03-22T08:34:18.143Z</time></trkpt><trkpt lat="49.3039654" lon="5.7722877"><ele>305.6</ele><time>2026-03-22T08:34:19.143Z</time></trkpt><trkpt lat="49.3040354" lon="5.7721665"><ele>305.4</ele><time>2026-03-22T08:34:20.144Z</time></trkpt><trkpt lat="49.30411" lon="5.7720408"><ele>305.2</ele><time>2026-03-22T08:34:21.144Z</time></trkpt><trkpt lat="49.3041858" lon="5.7719173"><ele>305.0</ele><time>2026-03-22T08:34:22.145Z</time></trkpt><trkpt lat="49.3042626" lon="5.7717932"><ele>304.2</ele><time>2026-03-22T08:34:23.144Z</time></trkpt><trkpt lat="49.3043393" lon="5.7716708"><ele>303.4</ele><time>2026-03-22T08:34:24.145Z</time></trkpt><trkpt lat="49.3044117" lon="5.7715499"><ele>302.6</ele><time>2026-03-22T08:34:25.144Z</time></trkpt><trkpt lat="49.3044842" lon="5.771426"><ele>301.8</ele><time>2026-03-22T08:34:26.143Z</time></trkpt><trkpt lat="49.3045517" lon="5.7713034"><ele>301.0</ele><time>2026-03-22T08:34:27.143Z</time></trkpt><trkpt lat="49.3046197" lon="5.771174"><ele>301.0</ele><time>2026-03-22T08:34:28.143Z</time></trkpt><trkpt lat="49.3046855" lon="5.7710473"><ele>301.0</ele><time>2026-03-22T08:34:29.143Z</time></trkpt><trkpt lat="49.3047497" lon="5.770917"><ele>301.0</ele><time>2026-03-22T08:34:30.143Z</time></trkpt><trkpt lat="49.3048095" lon="5.7707846"><ele>301.0</ele><time>2026-03-22T08:34:31.144Z</time></trkpt><trkpt lat="49.3048656" lon="5.77065"><ele>301.0</ele><time>2026-03-22T08:34:32.144Z</time></trkpt><trkpt lat="49.3049187" lon="5.7705148"><ele>301.40000000000003</ele><time>2026-03-22T08:34:33.144Z</time></trkpt><trkpt lat="49.3049647" lon="5.7703644"><ele>301.8</ele><time>2026-03-22T08:34:34.144Z</time></trkpt><trkpt lat="49.3050081" lon="5.7702142"><ele>302.20000000000005</ele><time>2026-03-22T08:34:35.143Z</time></trkpt><trkpt lat="49.30505" lon="5.7700618"><ele>302.6</ele><time>2026-03-22T08:34:36.143Z</time></trkpt><trkpt lat="49.3050844" lon="5.7699041"><ele>303.0</ele><time>2026-03-22T08:34:37.143Z</time></trkpt><trkpt lat="49.3051156" lon="5.769745"><ele>303.0</ele><time>2026-03-22T08:34:38.143Z</time></trkpt><trkpt lat="49.3051356" lon="5.7695799"><ele>303.0</ele><time>2026-03-22T08:34:39.144Z</time></trkpt><trkpt lat="49.3051428" lon="5.7694082"><ele>303.0</ele><time>2026-03-22T08:34:40.144Z</time></trkpt><trkpt lat="49.3051377" lon="5.7692398"><ele>303.0</ele><time>2026-03-22T08:34:41.143Z</time></trkpt><trkpt lat="49.3051276" lon="5.769075"><ele>303.0</ele><time>2026-03-22T08:34:42.143Z</time></trkpt><trkpt lat="49.3051195" lon="5.7689148"><ele>302.8</ele><time>2026-03-22T08:34:43.143Z</time></trkpt><trkpt lat="49.3051191" lon="5.7687587"><ele>302.6</ele><time>2026-03-22T08:34:44.144Z</time></trkpt><trkpt lat="49.3051219" lon="5.7686151"><ele>302.4</ele><time>2026-03-22T08:34:45.144Z</time></trkpt><trkpt lat="49.3051375" lon="5.7684775"><ele>302.2</ele><time>2026-03-22T08:34:46.144Z</time></trkpt><trkpt lat="49.3051701" lon="5.768355"><ele>302.0</ele><time>2026-03-22T08:34:47.143Z</time></trkpt><trkpt lat="49.305216" lon="5.7682474"><ele>302.0</ele><time>2026-03-22T08:34:48.145Z</time></trkpt><trkpt lat="49.3052753" lon="5.7681443"><ele>302.0</ele><time>2026-03-22T08:34:49.143Z</time></trkpt><trkpt lat="49.305336" lon="5.7680355"><ele>302.0</ele><time>2026-03-22T08:34:50.144Z</time></trkpt><trkpt lat="49.3054011" lon="5.7679367"><ele>302.0</ele><time>2026-03-22T08:34:51.144Z</time></trkpt><trkpt lat="49.3054615" lon="5.7678408"><ele>302.0</ele><time>2026-03-22T08:34:52.144Z</time></trkpt><trkpt lat="49.3055213" lon="5.7677593"><ele>302.0</ele><time>2026-03-22T08:34:53.144Z</time></trkpt><trkpt lat="49.3055756" lon="5.767683"><ele>302.6</ele><time>2026-03-22T08:34:54.144Z</time></trkpt><trkpt lat="49.3056607" lon="5.7675481"><ele>303.2</ele><time>2026-03-22T08:34:56.144Z</time></trkpt><trkpt lat="49.3056914" lon="5.7673805"><ele>303.8</ele><time>2026-03-22T08:34:58.144Z</time></trkpt><trkpt lat="49.3056806" lon="5.7672848"><ele>304.4</ele><time>2026-03-22T08:34:59.144Z</time></trkpt><trkpt lat="49.30566" lon="5.7671683"><ele>305.0</ele><time>2026-03-22T08:35:00.144Z</time></trkpt><trkpt lat="49.3056319" lon="5.7670281"><ele>305.0</ele><time>2026-03-22T08:35:01.144Z</time></trkpt><trkpt lat="49.3055931" lon="5.7668713"><ele>305.0</ele><time>2026-03-22T08:35:02.144Z</time></trkpt><trkpt lat="49.3055513" lon="5.766714"><ele>305.0</ele><time>2026-03-22T08:35:03.144Z</time></trkpt><trkpt lat="49.3055135" lon="5.7665368"><ele>305.0</ele><time>2026-03-22T08:35:04.143Z</time></trkpt><trkpt lat="49.3054775" lon="5.76636"><ele>303.75</ele><time>2026-03-22T08:35:05.144Z</time></trkpt><trkpt lat="49.3054381" lon="5.7661844"><ele>302.5</ele><time>2026-03-22T08:35:06.145Z</time></trkpt><trkpt lat="49.3054008" lon="5.7660081"><ele>301.25</ele><time>2026-03-22T08:35:07.143Z</time></trkpt><trkpt lat="49.3053647" lon="5.7658334"><ele>300.0</ele><time>2026-03-22T08:35:08.144Z</time></trkpt><trkpt lat="49.3053294" lon="5.7656643"><ele>299.6</ele><time>2026-03-22T08:35:09.143Z</time></trkpt><trkpt lat="49.3052928" lon="5.765501"><ele>299.2</ele><time>2026-03-22T08:35:10.144Z</time></trkpt><trkpt lat="49.3052529" lon="5.7653414"><ele>298.8</ele><time>2026-03-22T08:35:11.143Z</time></trkpt><trkpt lat="49.3052183" lon="5.7651861"><ele>298.4</ele><time>2026-03-22T08:35:12.143Z</time></trkpt><trkpt lat="49.3051838" lon="5.7650394"><ele>298.0</ele><time>2026-03-22T08:35:13.144Z</time></trkpt><trkpt lat="49.305151" lon="5.7648957"><ele>297.4</ele><time>2026-03-22T08:35:14.144Z</time></trkpt><trkpt lat="49.3051212" lon="5.7647566"><ele>296.8</ele><time>2026-03-22T08:35:15.144Z</time></trkpt><trkpt lat="49.3050958" lon="5.7646219"><ele>296.2</ele><time>2026-03-22T08:35:16.144Z</time></trkpt><trkpt lat="49.3050739" lon="5.7645023"><ele>295.6</ele><time>2026-03-22T08:35:17.144Z</time></trkpt><trkpt lat="49.3050579" lon="5.7643887"><ele>295.0</ele><time>2026-03-22T08:35:18.143Z</time></trkpt><trkpt lat="49.3051016" lon="5.7642198"><ele>294.5</ele><time>2026-03-22T08:35:20.145Z</time></trkpt><trkpt lat="49.3052186" lon="5.7640918"><ele>294.0</ele><time>2026-03-22T08:35:22.143Z</time></trkpt><trkpt lat="49.3052984" lon="5.7640147"><ele>293.5</ele><time>2026-03-22T08:35:23.144Z</time></trkpt><trkpt lat="49.3053883" lon="5.7639216"><ele>293.0</ele><time>2026-03-22T08:35:24.143Z</time></trkpt><trkpt lat="49.3054812" lon="5.7638256"><ele>293.0</ele><time>2026-03-22T08:35:25.144Z</time></trkpt><trkpt lat="49.3055767" lon="5.7637292"><ele>293.0</ele><time>2026-03-22T08:35:26.145Z</time></trkpt><trkpt lat="49.3056651" lon="5.7636394"><ele>293.0</ele><time>2026-03-22T08:35:27.144Z</time></trkpt><trkpt lat="49.3057456" lon="5.76356"><ele>293.0</ele><time>2026-03-22T08:35:28.145Z</time></trkpt><trkpt lat="49.3058222" lon="5.7634925"><ele>293.0</ele><time>2026-03-22T08:35:29.144Z</time></trkpt><trkpt lat="49.3058879" lon="5.7634455"><ele>294.2</ele><time>2026-03-22T08:35:30.143Z</time></trkpt><trkpt lat="49.3059992" lon="5.7633963"><ele>295.4</ele><time>2026-03-22T08:35:32.143Z</time></trkpt><trkpt lat="49.3060867" lon="5.763365"><ele>296.59999999999997</ele><time>2026-03-22T08:35:34.144Z</time></trkpt><trkpt lat="49.306145" lon="5.7634281"><ele>297.8</ele><time>2026-03-22T08:35:36.143Z</time></trkpt><trkpt lat="49.3061795" lon="5.7635904"><ele>299.0</ele><time>2026-03-22T08:35:38.143Z</time></trkpt><trkpt lat="49.3061999" lon="5.7636834"><ele>299.0</ele><time>2026-03-22T08:35:39.144Z</time></trkpt><trkpt lat="49.3062258" lon="5.7637747"><ele>299.0</ele><time>2026-03-22T08:35:40.144Z</time></trkpt><trkpt lat="49.306253" lon="5.7638712"><ele>299.0</ele><time>2026-03-22T08:35:41.144Z</time></trkpt><trkpt lat="49.3062759" lon="5.7639615"><ele>299.0</ele><time>2026-03-22T08:35:42.144Z</time></trkpt><trkpt lat="49.3063063" lon="5.7640825"><ele>299.0</ele><time>2026-03-22T08:35:44.144Z</time></trkpt><trkpt lat="49.3062858" lon="5.7642067"><ele>299.0</ele><time>2026-03-22T08:35:47.144Z</time></trkpt><trkpt lat="49.3061754" lon="5.7642665"><ele>299.0</ele><time>2026-03-22T08:35:49.143Z</time></trkpt><trkpt lat="49.3061063" lon="5.7642953"><ele>299.0</ele><time>2026-03-22T08:35:50.143Z</time></trkpt><trkpt lat="49.3060365" lon="5.7643263"><ele>299.0</ele><time>2026-03-22T08:35:51.144Z</time></trkpt><trkpt lat="49.3059825" lon="5.7643797"><ele>299.0</ele><time>2026-03-22T08:35:52.144Z</time></trkpt><trkpt lat="49.3059455" lon="5.7645221"><ele>299.0</ele><time>2026-03-22T08:35:54.144Z</time></trkpt><trkpt lat="49.3059745" lon="5.7646746"><ele>299.0</ele><time>2026-03-22T08:35:56.143Z</time></trkpt><trkpt lat="49.3060195" lon="5.7648621"><ele>299.0</ele><time>2026-03-22T08:35:58.144Z</time></trkpt><trkpt lat="49.3060441" lon="5.7649711"><ele>299.0</ele><time>2026-03-22T08:35:59.143Z</time></trkpt><trkpt lat="49.3060699" lon="5.7650984"><ele>299.0</ele><time>2026-03-22T08:36:00.144Z</time></trkpt><trkpt lat="49.3061009" lon="5.7652284"><ele>299.0</ele><time>2026-03-22T08:36:01.144Z</time></trkpt><trkpt lat="49.3061332" lon="5.7653606"><ele>299.0</ele><time>2026-03-22T08:36:02.143Z</time></trkpt><trkpt lat="49.3061646" lon="5.7654964"><ele>299.0</ele><time>2026-03-22T08:36:03.144Z</time></trkpt><trkpt lat="49.3061932" lon="5.7656328"><ele>299.4</ele><time>2026-03-22T08:36:04.144Z</time></trkpt><trkpt lat="49.306225" lon="5.7657712"><ele>299.79999999999995</ele><time>2026-03-22T08:36:05.145Z</time></trkpt><trkpt lat="49.3062575" lon="5.7659089"><ele>300.20000000000005</ele><time>2026-03-22T08:36:06.144Z</time></trkpt><trkpt lat="49.3062893" lon="5.7660485"><ele>300.6</ele><time>2026-03-22T08:36:07.144Z</time></trkpt><trkpt lat="49.306322" lon="5.7661807"><ele>301.0</ele><time>2026-03-22T08:36:08.144Z</time></trkpt><trkpt lat="49.3063506" lon="5.7663038"><ele>301.2</ele><time>2026-03-22T08:36:09.144Z</time></trkpt><trkpt lat="49.306373" lon="5.7664148"><ele>301.40000000000003</ele><time>2026-03-22T08:36:10.144Z</time></trkpt><trkpt lat="49.306388" lon="5.766581"><ele>301.6</ele><time>2026-03-22T08:36:12.144Z</time></trkpt><trkpt lat="49.3064318" lon="5.7666914"><ele>301.8</ele><time>2026-03-22T08:36:15.143Z</time></trkpt><trkpt lat="49.3065123" lon="5.7666793"><ele>302.0</ele><time>2026-03-22T08:36:17.144Z</time></trkpt><trkpt lat="49.3066168" lon="5.7665706"><ele>302.8</ele><time>2026-03-22T08:36:19.145Z</time></trkpt><trkpt lat="49.3066885" lon="5.7664966"><ele>303.6</ele><time>2026-03-22T08:36:20.144Z</time></trkpt><trkpt lat="49.3067694" lon="5.7664182"><ele>304.40000000000003</ele><time>2026-03-22T08:36:21.143Z</time></trkpt><trkpt lat="49.3068578" lon="5.7663367"><ele>305.2</ele><time>2026-03-22T08:36:22.144Z</time></trkpt><trkpt lat="49.3069508" lon="5.7662434"><ele>306.0</ele><time>2026-03-22T08:36:23.144Z</time></trkpt><trkpt lat="49.3070484" lon="5.7661444"><ele>306.0</ele><time>2026-03-22T08:36:24.144Z</time></trkpt><trkpt lat="49.3071486" lon="5.7660417"><ele>306.0</ele><time>2026-03-22T08:36:25.144Z</time></trkpt><trkpt lat="49.3072513" lon="5.7659412"><ele>306.0</ele><time>2026-03-22T08:36:26.144Z</time></trkpt><trkpt lat="49.3073534" lon="5.7658423"><ele>306.0</ele><time>2026-03-22T08:36:27.143Z</time></trkpt><trkpt lat="49.3074581" lon="5.7657579"><ele>305.8</ele><time>2026-03-22T08:36:28.143Z</time></trkpt><trkpt lat="49.3075624" lon="5.765682"><ele>305.6</ele><time>2026-03-22T08:36:29.143Z</time></trkpt><trkpt lat="49.3076656" lon="5.7656142"><ele>305.4</ele><time>2026-03-22T08:36:30.143Z</time></trkpt><trkpt lat="49.3077655" lon="5.7655529"><ele>305.2</ele><time>2026-03-22T08:36:31.144Z</time></trkpt><trkpt lat="49.3078647" lon="5.7654982"><ele>305.0</ele><time>2026-03-22T08:36:32.145Z</time></trkpt><trkpt lat="49.3079553" lon="5.7654485"><ele>305.0</ele><time>2026-03-22T08:36:33.144Z</time></trkpt><trkpt lat="49.3080355" lon="5.765405"><ele>305.0</ele><time>2026-03-22T08:36:34.144Z</time></trkpt><trkpt lat="49.3081068" lon="5.7653651"><ele>305.0</ele><time>2026-03-22T08:36:35.144Z</time></trkpt><trkpt lat="49.3082131" lon="5.7653106"><ele>305.0</ele><time>2026-03-22T08:36:37.144Z</time></trkpt><trkpt lat="49.3082846" lon="5.7653261"><ele>305.0</ele><time>2026-03-22T08:36:39.144Z</time></trkpt><trkpt lat="49.3083213" lon="5.7654252"><ele>305.0</ele><time>2026-03-22T08:36:41.143Z</time></trkpt><trkpt lat="49.3083437" lon="5.7655582"><ele>302.0</ele><time>2026-03-22T08:36:43.144Z</time></trkpt><trkpt lat="49.3083708" lon="5.7657143"><ele>302.0</ele><time>2026-03-22T08:36:45.144Z</time></trkpt><trkpt lat="49.3083988" lon="5.7658507"><ele>302.0</ele><time>2026-03-22T08:36:47.145Z</time></trkpt></trkseg></trk></gpx>